UA4972 / N14204 7700 Squawk Report (12th of November, 2019)

Aircraft E145 Reg No. N14204 Age N/A
Model ERJ-145 Jet engines 2 First flight 06-06
Registered 04-17 Rollout 05-06 Delivered 21-06-06
Construction No. 14500968 Line No. N/A Series XR
ADSHEX A0AC93 Airline name United Express Owner CommutAir
Airfield based Newark-Liberty International~NJ~N First tracked 2017-07-13 22:08:00

Flight history for N14204

Route Flight No Date Playback
Washington Dulles International (IAD) - Lambert St Louis Intl (STL) UA4976 2019-12-12 00:28:00
Charlottesville-Albemarle (CHO) - Washington Dulles International (IAD) UA4950 2019-12-11 22:29:00
Washington Dulles International (IAD) - Charlottesville-Albemarle (CHO) UA4949 2019-12-11 19:51:00
Albany Intl (ALB) - Washington Dulles International (IAD) UA4889 2019-12-11 16:09:00
Washington Dulles International (IAD) - Albany Intl (ALB) UA4926 2019-12-10 23:37:00
Charlottesville-Albemarle (CHO) - Washington Dulles International (IAD) UA4950 2019-12-10 22:44:00
Washington Dulles International (IAD) - Charlottesville-Albemarle (CHO) UA4949 2019-12-10 18:54:00
Chicago Ohare Intl (ORD) - Lambert St Louis Intl (STL) - Washington Dulles International (IAD) UA4904 2019-12-09 01:39:00
Indianapolis Intl (IND) - Chicago Ohare Intl (ORD) UA4971 2019-12-08 22:17:00
Ronald Reagan Washington Natl (DCA) - Newark Liberty Intl (EWR) - Indianapolis Intl (IND) UA5015 2019-12-08 18:28:00
Richmond Intl (RIC) - Newark Liberty Intl (EWR) - Richmond Intl (RIC) UA4941 2019-12-07 20:28:00
Washington Dulles International (IAD) - Richmond Intl (RIC) UA4974 2019-12-07 19:24:00
Portland Intl Jetport (PWM) - Washington Dulles International (IAD) - Wilkes Barre Scranton Intl (AVP) UA4960 2019-12-07 17:48:00
Newark Liberty Intl (EWR) - Portland Intl Jetport (PWM) UA5021 2019-12-07 14:13:00
Memphis Intl (MEM) - Newark Liberty Intl (EWR) UA4936 2019-12-06 20:52:00
Newark Liberty Intl (EWR) - Memphis Intl (MEM) UA5008 2019-12-06 17:33:00
Richmond Intl (RIC) - Newark Liberty Intl (EWR) UA5014 2019-12-06 14:37:00
Washington Dulles International (IAD) - Richmond Intl (RIC) UA4893 2019-12-06 03:55:00
Syracuse Hancock Intl (SYR) - Washington Dulles International (IAD) - Pierre Elliott Trudeau (YUL) UA4979 2019-12-06 02:08:00
Washington Dulles International (IAD) - Syracuse Hancock Intl (SYR) UA4942 2019-12-05 23:55:00
Time Lat Lon Altitude Heading Speed Vertical Rate
2019-11-13 00:03:06 GMT 36.831852 -80.475029 28,000 232 357 0
2019-11-13 00:03:02 GMT 36.831852 -80.475029 28,000 232 357 0
2019-11-13 00:02:57 GMT 36.839672 -80.462700 28,000 232 357 0
2019-11-13 00:02:51 GMT 36.843246 -80.457169 28,000 231 356 0
2019-11-13 00:02:48 GMT 36.846283 -80.452469 28,000 231 356 0
2019-11-13 00:02:45 GMT 36.849518 -80.447617 28,000 231 357 0
2019-11-13 00:02:42 GMT 36.853546 -80.441597 28,000 231 357 0
2019-11-13 00:02:39 GMT 36.856106 -80.437836 28,000 231 357 0
2019-11-13 00:02:36 GMT 36.859680 -80.432426 28,000 231 356 0
2019-11-13 00:02:32 GMT 36.863274 -80.427086 28,000 231 355 -128
2019-11-13 00:02:26 GMT 36.868927 -80.418518 28,000 232 356 0
2019-11-13 00:02:22 GMT 36.874603 -80.409637 28,000 231 355 -128
2019-11-13 00:02:16 GMT 36.882267 -80.397652 28,000 232 355 0
2019-11-13 00:02:08 GMT 36.888878 -80.387444 28,000 231 354 -64
2019-11-13 00:02:05 GMT 36.891586 -80.383339 28,000 231 355 0
2019-11-13 00:02:01 GMT 36.896000 -80.376755 28,000 231 354 -64
2019-11-13 00:01:56 GMT 36.903809 -80.365105 28,000 231 353 0
2019-11-13 00:01:53 GMT 36.907360 -80.359734 28,000 231 355 0
2019-11-13 00:01:49 GMT 36.907360 -80.359734 28,000 231 354 0
2019-11-13 00:01:43 GMT 36.913967 -80.349586 28,000 232 353 0
2019-11-13 00:01:40 GMT 36.917229 -80.344452 28,000 232 354 0
2019-11-13 00:01:34 GMT 36.924362 -80.333260 28,000 232 353 0
2019-11-13 00:01:30 GMT 36.928436 -80.326889 28,000 232 354 -64
2019-11-13 00:01:23 GMT 36.934361 -80.317879 28,000 231 354 0
2019-11-13 00:01:19 GMT 36.938461 -80.311691 28,000 231 354 0
2019-11-13 00:01:12 GMT 36.945812 -80.300743 28,000 231 355 64
2019-11-13 00:01:09 GMT 36.949356 -80.295387 28,000 231 354 0
2019-11-13 00:01:03 GMT 36.956406 -80.284576 28,000 232 354 64
2019-11-13 00:00:59 GMT 36.960709 -80.277878 28,000 232 354 64
2019-11-13 00:00:52 GMT 36.966389 -80.268860 27,975 232 355 0
2019-11-13 00:00:48 GMT 36.970856 -80.261810 27,975 232 355 -64
2019-11-13 00:00:42 GMT 36.977047 -80.252258 28,000 231 355 0
2019-11-13 00:00:37 GMT 36.981766 -80.245132 28,000 231 355 -64
2019-11-13 00:00:32 GMT 36.987988 -80.235840 28,000 231 355 0
2019-11-13 00:00:27 GMT 36.992294 -80.229355 28,000 231 355 0
2019-11-13 00:00:23 GMT 36.996964 -80.222229 28,000 232 354 0
2019-11-13 00:00:20 GMT 36.999023 -80.219009 28,000 232 355 0
2019-11-13 00:00:17 GMT 37.003098 -80.212585 28,000 232 354 0
2019-11-13 00:00:13 GMT 37.006561 -80.207123 28,000 232 354 -64
2019-11-13 00:00:10 GMT 37.009186 -80.202942 28,000 232 354 0
2019-11-13 00:00:07 GMT 37.013672 -80.195869 28,000 232 354 -64
2019-11-13 00:00:02 GMT 37.017502 -80.189987 28,000 231 354 64
2019-11-12 23:59:59 GMT 37.024204 -80.179771 28,000 231 355 0
2019-11-12 23:59:56 GMT 37.024204 -80.179771 28,000 231 355 0
2019-11-12 23:59:52 GMT 37.027863 -80.174309 28,000 231 354 0
2019-11-12 23:59:49 GMT 37.031662 -80.168640 28,000 231 355 0
2019-11-12 23:59:46 GMT 37.035191 -80.163300 28,000 231 354 0
2019-11-12 23:59:43 GMT 37.038078 -80.158875 28,000 231 354 0
2019-11-12 23:59:40 GMT 37.041290 -80.153862 28,000 232 353 -64
2019-11-12 23:59:34 GMT 37.048096 -80.143158 28,000 232 353 -64
2019-11-12 23:59:29 GMT 37.051712 -80.137436 28,000 232 353 -64
2019-11-12 23:59:25 GMT 37.056564 -80.129723 28,000 232 352 0
2019-11-12 23:59:20 GMT 37.067127 -80.113617 28,000 231 353 -64
2019-11-12 23:59:15 GMT 37.067127 -80.113617 28,000 231 352 -64
2019-11-12 23:59:11 GMT 37.070896 -80.108009 27,975 231 355 0
2019-11-12 23:59:04 GMT 37.083527 -80.088753 28,000 231 352 64
2019-11-12 23:58:59 GMT 37.083527 -80.088753 28,000 232 352 0
2019-11-12 23:58:54 GMT 37.090805 -80.077240 28,000 232 353 0
2019-11-12 23:58:47 GMT 37.095657 -80.069527 28,000 232 353 0
2019-11-12 23:58:43 GMT 37.100967 -80.061234 28,000 232 353 0
2019-11-12 23:58:39 GMT 37.103027 -80.058075 27,975 231 355 0
2019-11-12 23:58:36 GMT 37.106045 -80.053490 28,000 231 353 -64
2019-11-12 23:58:33 GMT 37.112183 -80.044167 28,000 231 353 0
2019-11-12 23:58:24 GMT 37.119186 -80.033356 28,000 231 354 -64
2019-11-12 23:58:21 GMT 37.123081 -80.027283 28,000 232 354 -64
2019-11-12 23:58:17 GMT 37.127598 -80.020172 28,000 231 355 0
2019-11-12 23:58:09 GMT 37.133743 -80.010559 28,000 232 355 128
2019-11-12 23:58:05 GMT 37.138046 -80.003845 27,975 231 355 0
2019-11-12 23:57:56 GMT 37.148312 -79.988289 28,000 231 355 -64
2019-11-12 23:57:48 GMT 37.164791 -79.962791 28,000 232 355 0
2019-11-12 23:57:36 GMT 37.169037 -79.956039 28,000 232 356 64
2019-11-12 23:57:27 GMT 37.178055 -79.941841 28,000 231 355 0
2019-11-12 23:57:22 GMT 37.182529 -79.935028 28,000 231 355 0
2019-11-12 23:57:16 GMT 37.190689 -79.922615 28,000 231 355 -128
2019-11-12 23:57:04 GMT 37.201950 -79.905434 28,000 232 354 64
2019-11-12 23:56:50 GMT 37.215866 -79.883575 28,000 232 355 -128
2019-11-12 23:56:46 GMT 37.219528 -79.877792 27,975 231 356 64
2019-11-12 23:56:41 GMT 37.225616 -79.868095 28,000 232 354 192
2019-11-12 23:56:34 GMT 37.232807 -79.856873 28,000 231 356 64
2019-11-12 23:56:31 GMT 37.236740 -79.850792 27,975 231 356 64
2019-11-12 23:56:19 GMT 37.248322 -79.833031 28,000 231 356 -256
2019-11-12 23:56:10 GMT 37.257805 -79.818481 28,000 232 357 64
2019-11-12 23:56:00 GMT 37.268883 -79.801048 28,000 232 357 128
2019-11-12 23:55:50 GMT 37.277847 -79.787155 28,000 232 357 64
2019-11-12 23:55:46 GMT 37.282013 -79.780731 28,000 231 357 -128
2019-11-12 23:55:37 GMT 37.291786 -79.765579 28,000 232 357 0
2019-11-12 23:55:24 GMT 37.304401 -79.745338 28,000 233 357 -128
2019-11-12 23:55:07 GMT 37.323910 -79.715126 28,000 231 356 320
2019-11-12 23:54:59 GMT 37.330238 -79.705513 27,975 231 357 256
2019-11-12 23:54:56 GMT 37.339600 -79.690964 28,000 232 357 -320
2019-11-12 23:54:51 GMT 37.339600 -79.690964 28,000 232 357 128
2019-11-12 23:54:45 GMT 37.345554 -79.681572 28,000 232 357 -256
2019-11-12 23:54:42 GMT 37.348251 -79.677292 28,000 232 357 -256
2019-11-12 23:54:34 GMT 37.356682 -79.663956 28,000 232 358 64
2019-11-12 23:54:29 GMT 37.361614 -79.656075 28,000 232 358 64
2019-11-12 23:54:22 GMT 37.369263 -79.644043 28,000 232 359 64
2019-11-12 23:54:11 GMT 37.380051 -79.627533 28,000 231 359 -128
2019-11-12 23:54:02 GMT 37.389450 -79.612953 28,000 232 360 -128
2019-11-12 23:53:51 GMT 37.400764 -79.594872 28,000 233 359 64
2019-11-12 23:53:42 GMT 37.410828 -79.578827 28,000 231 359 0
2019-11-12 23:53:35 GMT 37.417557 -79.568420 28,000 231 360 0
2019-11-12 23:53:29 GMT 37.424332 -79.558136 28,000 231 360 0
2019-11-12 23:53:20 GMT 37.433533 -79.543823 28,000 232 359 0
2019-11-12 23:53:13 GMT 37.441547 -79.530922 28,000 233 359 -64
2019-11-12 23:53:10 GMT 37.443966 -79.526985 28,000 233 360 0
2019-11-12 23:52:58 GMT 37.455780 -79.508293 28,000 231 359 0
2019-11-12 23:52:47 GMT 37.467381 -79.490501 28,000 231 360 -64
2019-11-12 23:52:32 GMT 37.482971 -79.466042 28,000 233 359 -64
2019-11-12 23:52:27 GMT 37.488052 -79.457726 28,000 233 359 64
2019-11-12 23:52:07 GMT 37.508816 -79.425179 28,000 231 359 -64
2019-11-12 23:51:56 GMT 37.521336 -79.405716 28,000 233 358 0
2019-11-12 23:51:47 GMT 37.531578 -79.389297 28,000 233 359 0
2019-11-12 23:51:39 GMT 37.538467 -79.378075 28,000 233 358 0
2019-11-12 23:51:36 GMT 37.541355 -79.373474 28,000 232 361 0
2019-11-12 23:51:26 GMT 37.552296 -79.356575 28,000 232 361 0
2019-11-12 23:51:16 GMT 37.573151 -79.323738 28,000 231 361 0
2019-11-12 23:51:06 GMT 37.573151 -79.323738 28,000 232 362 -64
2019-11-12 23:50:55 GMT 37.585373 -79.304108 28,000 232 362 -64
2019-11-12 23:50:45 GMT 37.594299 -79.290375 28,000 231 363 64
2019-11-12 23:50:35 GMT 37.605148 -79.273193 28,000 233 362 0
2019-11-12 23:50:31 GMT 37.610718 -79.264145 28,000 233 362 -64
2019-11-12 23:50:26 GMT 37.615814 -79.255783 28,000 233 362 -64
2019-11-12 23:50:14 GMT 37.626450 -79.238953 28,000 232 362 64
2019-11-12 23:50:04 GMT 37.647961 -79.205452 28,000 232 362 -64
2019-11-12 23:49:54 GMT 37.647961 -79.205452 28,000 232 360 -64
2019-11-12 23:49:43 GMT 37.659130 -79.187546 28,000 232 361 0
2019-11-12 23:49:33 GMT 37.670883 -79.168648 28,000 232 360 0
2019-11-12 23:49:20 GMT 37.683380 -79.148895 28,000 232 361 0
2019-11-12 23:49:11 GMT 37.693535 -79.132729 28,000 232 359 0
2019-11-12 23:49:02 GMT 37.702190 -79.118881 28,000 232 359 128
2019-11-12 23:48:57 GMT 37.706543 -79.112022 28,000 232 357 64
2019-11-12 23:48:51 GMT 37.713364 -79.101204 28,000 232 358 -128
2019-11-12 23:48:41 GMT 37.724304 -79.083916 28,025 232 357 -64
2019-11-12 23:48:30 GMT 37.734264 -79.067825 28,000 232 356 0
2019-11-12 23:48:25 GMT 37.739155 -79.060005 28,000 232 356 128
2019-11-12 23:47:43 GMT 37.784168 -78.988419 28,000 232 355 -128
2019-11-12 23:47:34 GMT 37.792362 -78.975395 28,000 232 356 0
2019-11-12 23:47:07 GMT 37.820480 -78.930634 27,975 232 358 192
2019-11-12 23:46:56 GMT 37.831192 -78.913452 27,975 232 359 128
2019-11-12 23:46:50 GMT 37.836727 -78.904465 27,975 233 362 -64
2019-11-12 23:46:41 GMT 37.847946 -78.886436 28,000 232 365 -128
2019-11-12 23:46:29 GMT 37.859352 -78.868401 28,000 232 362 0
2019-11-12 23:46:19 GMT 37.868851 -78.852936 28,000 232 356 -64
2019-11-12 23:45:48 GMT 37.902599 -78.799080 28,000 233 360 0
2019-11-12 23:45:44 GMT 37.905624 -78.794121 28,000 232 356 -64
2019-11-12 23:45:40 GMT 37.911072 -78.785110 28,000 233 347 0
2019-11-12 23:45:27 GMT 37.922802 -78.765945 28,000 232 352 64
2019-11-12 23:45:17 GMT 37.935093 -78.746597 28,000 232 352 64
2019-11-12 23:45:00 GMT 37.953526 -78.716919 28,000 233 347 0
2019-11-12 23:44:57 GMT 37.953526 -78.716919 28,000 232 342 -64
2019-11-12 23:44:44 GMT 37.970306 -78.689926 28,000 232 342 -64
2019-11-12 23:44:40 GMT 37.970306 -78.689926 28,000 233 283 128
2019-11-12 23:44:35 GMT 37.974476 -78.683304 27,950 233 283 128
2019-11-12 23:44:25 GMT 37.998642 -78.644226 28,000 233 283 128
2019-11-12 23:44:10 GMT 37.998642 -78.644226 28,000 233 330 0
2019-11-12 23:44:04 GMT 38.004967 -78.633987 28,000 233 329 128
2019-11-12 23:43:52 GMT 38.016541 -78.615303 27,950 233 283 128
2019-11-12 23:43:46 GMT 38.032528 -78.589386 28,000 232 329 0
2019-11-12 23:43:35 GMT 38.032528 -78.589386 28,000 233 327 -64
2019-11-12 23:43:28 GMT 38.039230 -78.578522 28,000 234 310 -192
2019-11-12 23:43:23 GMT 38.043652 -78.571297 27,950 233 283 128
2019-11-12 23:43:19 GMT 38.047329 -78.565323 28,000 232 305 64
2019-11-12 23:42:59 GMT 38.065018 -78.536530 28,000 233 317 -192
2019-11-12 23:42:51 GMT 38.072002 -78.525139 28,000 233 314 192
2019-11-12 23:42:46 GMT 38.078110 -78.514847 28,000 234 310 -64
2019-11-12 23:42:42 GMT 38.080383 -78.511108 28,000 234 310 -64
2019-11-12 23:42:35 GMT 38.086620 -78.500778 28,025 232 305 64
2019-11-12 23:42:28 GMT 38.092720 -78.491463 28,000 229 301 64
2019-11-12 23:42:23 GMT 38.100586 -78.479698 27,950 233 292 192
2019-11-12 23:42:13 GMT 38.106079 -78.470787 27,950 232 288 192
2019-11-12 23:42:03 GMT 38.114594 -78.456932 27,975 233 283 128
2019-11-12 23:41:57 GMT 38.118439 -78.450684 27,950 233 278 896
2019-11-12 23:41:52 GMT 38.123474 -78.442383 27,875 233 277 1024
2019-11-12 23:41:49 GMT 38.124886 -78.440056 27,800 232 273 1024
2019-11-12 23:41:46 GMT 38.126907 -78.436775 27,650 233 275 1088
2019-11-12 23:41:40 GMT 38.131897 -78.428589 27,675 232 273 1088
2019-11-12 23:41:36 GMT 38.134735 -78.424095 27,650 232 273 1088
2019-11-12 23:41:31 GMT 38.142838 -78.411057 27,475 232 271 1024
2019-11-12 23:41:27 GMT 38.142838 -78.411057 27,475 232 269 1152
2019-11-12 23:41:23 GMT 38.146069 -78.405838 27,350 232 269 1344
2019-11-12 23:41:20 GMT 38.147415 -78.403641 27,300 233 268 1408
2019-11-12 23:41:17 GMT 38.150803 -78.398148 26,850 233 268 1472
2019-11-12 23:41:12 GMT 38.153549 -78.393707 26,850 233 268 1536
2019-11-12 23:41:05 GMT 38.160507 -78.382248 26,925 232 267 1536
2019-11-12 23:41:01 GMT 38.161743 -78.380264 26,825 233 268 1472
2019-11-12 23:40:55 GMT 38.166458 -78.372520 25,600 233 267 1408
2019-11-12 23:40:50 GMT 38.174046 -78.360222 26,425 232 267 1536
2019-11-12 23:40:46 GMT 38.178654 -78.352821 25,600 233 267 1408
2019-11-12 23:40:39 GMT 38.178654 -78.352821 26,200 233 266 1472
2019-11-12 23:40:33 GMT 38.183495 -78.344879 26,125 233 267 1408
2019-11-12 23:40:29 GMT 38.187405 -78.338432 25,975 233 266 1536
2019-11-12 23:40:25 GMT 38.189667 -78.334740 25,925 233 266 1536
2019-11-12 23:40:22 GMT 38.192245 -78.330551 25,825 233 266 1472
2019-11-12 23:40:19 GMT 38.194061 -78.327560 25,675 233 266 1472
2019-11-12 23:40:15 GMT 38.197220 -78.322411 25,675 233 267 1344
2019-11-12 23:40:11 GMT 38.200115 -78.317711 25,450 233 267 1472
2019-11-12 23:40:04 GMT 38.205189 -78.309357 24,425 232 267 1472
2019-11-12 23:39:59 GMT 38.213058 -78.296577 25,150 232 269 1472
2019-11-12 23:39:54 GMT 38.213058 -78.296577 25,150 232 269 1344
2019-11-12 23:39:47 GMT 38.218689 -78.287437 24,850 233 270 1472
2019-11-12 23:39:44 GMT 38.221024 -78.283607 24,900 233 270 1664
2019-11-12 23:39:40 GMT 38.224640 -78.277649 24,775 233 271 1408
2019-11-12 23:39:37 GMT 38.226089 -78.275322 24,700 232 272 1344
2019-11-12 23:39:32 GMT 38.229630 -78.269585 24,625 232 272 1600
2019-11-12 23:39:26 GMT 38.237263 -78.257225 24,450 232 274 1344
2019-11-12 23:39:22 GMT 38.237263 -78.257225 24,375 232 274 1344
2019-11-12 23:39:17 GMT 38.241806 -78.249886 24,250 232 275 1472
2019-11-12 23:39:13 GMT 38.245132 -78.244453 24,125 233 277 1536
2019-11-12 23:39:08 GMT 38.250530 -78.235611 23,975 233 278 1280
2019-11-12 23:39:02 GMT 38.253651 -78.230476 23,875 233 278 1280
2019-11-12 23:38:55 GMT 38.259476 -78.220963 23,700 233 280 1536
2019-11-12 23:38:52 GMT 38.261608 -78.217522 23,650 233 280 1600
2019-11-12 23:38:45 GMT 38.267212 -78.208397 23,450 233 281 1472
2019-11-12 23:38:42 GMT 38.270325 -78.203194 23,375 233 281 1408
2019-11-12 23:38:38 GMT 38.273388 -78.198174 23,175 233 282 1664
2019-11-12 23:38:35 GMT 38.275902 -78.193939 23,200 233 282 1408
2019-11-12 23:38:31 GMT 38.278183 -78.190292 23,125 233 282 1472
2019-11-12 23:38:27 GMT 38.281219 -78.185371 22,975 232 282 1472
2019-11-12 23:38:24 GMT 38.284561 -78.179962 22,950 232 283 1600
2019-11-12 23:38:21 GMT 38.286438 -78.176956 22,875 232 283 1536
2019-11-12 23:38:17 GMT 38.291931 -78.168015 22,750 233 283 1536
2019-11-12 23:38:14 GMT 38.291931 -78.168015 22,700 233 283 1472
2019-11-12 23:38:11 GMT 38.294815 -78.163345 22,625 233 283 1472
2019-11-12 23:38:07 GMT 38.298019 -78.157967 22,400 233 284 1472
2019-11-12 23:38:04 GMT 38.300434 -78.153992 22,450 233 284 1472
2019-11-12 23:37:59 GMT 38.303322 -78.149216 20,500 233 286 1472
2019-11-12 23:37:55 GMT 38.307137 -78.142822 22,200 233 285 1472
2019-11-12 23:37:52 GMT 38.309875 -78.138390 22,200 233 285 1472
2019-11-12 23:37:49 GMT 38.311523 -78.135704 22,100 232 285 1472
2019-11-12 23:37:46 GMT 38.314587 -78.130768 22,025 232 286 1472
2019-11-12 23:37:42 GMT 38.317062 -78.126816 21,900 232 285 1536
2019-11-12 23:37:39 GMT 38.319893 -78.122284 21,850 232 285 1472
2019-11-12 23:37:35 GMT 38.323929 -78.115601 21,725 233 286 1472
2019-11-12 23:37:31 GMT 38.326859 -78.110809 21,650 233 286 1536
2019-11-12 23:37:28 GMT 38.328552 -78.107956 21,600 233 286 1472
2019-11-12 23:37:24 GMT 38.332138 -78.101990 21,450 233 286 1472
2019-11-12 23:37:21 GMT 38.334045 -78.098763 21,300 232 287 1408
2019-11-12 23:37:18 GMT 38.336472 -78.094734 21,350 232 287 1472
2019-11-12 23:37:14 GMT 38.340565 -78.088135 21,225 232 286 1408
2019-11-12 23:37:09 GMT 38.344891 -78.081207 20,675 232 287 1472
2019-11-12 23:37:04 GMT 38.348755 -78.074936 21,000 233 287 1408
2019-11-12 23:36:58 GMT 38.353226 -78.067413 20,875 233 286 1344
2019-11-12 23:36:54 GMT 38.357460 -78.060310 20,725 234 286 1408
2019-11-12 23:36:50 GMT 38.359543 -78.056870 20,675 233 287 1408
2019-11-12 23:36:47 GMT 38.362106 -78.052544 20,575 233 286 1472
2019-11-12 23:36:43 GMT 38.365631 -78.046700 20,500 233 286 1408
2019-11-12 23:36:40 GMT 38.368561 -78.041969 20,100 232 286 1472
2019-11-12 23:36:36 GMT 38.370895 -78.038170 20,375 232 286 1472
2019-11-12 23:36:32 GMT 38.373917 -78.033432 20,250 232 286 1472
2019-11-12 23:36:27 GMT 38.379410 -78.024551 20,075 233 286 1472
2019-11-12 23:36:23 GMT 38.382431 -78.019646 20,000 233 286 1472
2019-11-12 23:36:16 GMT 38.387238 -78.011635 19,850 233 285 1536
2019-11-12 23:36:12 GMT 38.390560 -78.006035 19,750 233 285 1536
2019-11-12 23:36:08 GMT 38.394608 -77.999420 19,625 233 285 1472
2019-11-12 23:36:05 GMT 38.395775 -77.997620 19,575 232 283 1472
2019-11-12 23:36:01 GMT 38.399231 -77.992119 19,475 232 284 1408
2019-11-12 23:35:58 GMT 38.402012 -77.987701 19,400 232 283 1472
2019-11-12 23:35:55 GMT 38.404900 -77.982986 19,325 234 281 1472
2019-11-12 23:35:52 GMT 38.407131 -77.979286 19,225 234 282 1408
2019-11-12 23:35:49 GMT 38.412827 -77.969315 19,100 235 281 1472
2019-11-12 23:35:44 GMT 38.412827 -77.969315 19,000 235 281 1536
2019-11-12 23:35:41 GMT 38.414932 -77.965553 18,975 235 280 1472
2019-11-12 23:35:38 GMT 38.417633 -77.960716 18,900 235 280 1472
2019-11-12 23:35:35 GMT 38.419888 -77.956665 18,750 235 280 1472
2019-11-12 23:35:26 GMT 38.426743 -77.944717 18,600 235 280 1536
2019-11-12 23:35:23 GMT 38.428593 -77.941345 18,525 235 279 1536
2019-11-12 23:35:20 GMT 38.434937 -77.929611 18,375 236 277 1408
2019-11-12 23:35:15 GMT 38.438095 -77.923637 18,250 236 276 1472
2019-11-12 23:35:11 GMT 38.438095 -77.923637 18,225 236 277 1472
2019-11-12 23:35:06 GMT 38.441208 -77.918091 18,100 235 276 1536
2019-11-12 23:35:02 GMT 38.443909 -77.913330 18,050 234 276 1472
2019-11-12 23:34:59 GMT 38.446049 -77.909729 17,950 233 276 1536
2019-11-12 23:34:56 GMT 38.448441 -77.905846 17,875 232 275 1600
2019-11-12 23:34:52 GMT 38.451645 -77.900948 17,725 230 276 1536
2019-11-12 23:34:49 GMT 38.454712 -77.896408 17,675 229 276 1536
2019-11-12 23:34:46 GMT 38.457596 -77.892273 17,600 228 276 1536
2019-11-12 23:34:43 GMT 38.460667 -77.888000 17,500 228 276 1536
2019-11-12 23:34:40 GMT 38.462906 -77.884888 17,425 228 276 1536
2019-11-12 23:34:36 GMT 38.466064 -77.880531 17,325 228 276 1600
2019-11-12 23:34:30 GMT 38.472118 -77.872131 17,150 228 276 1472
2019-11-12 23:34:21 GMT 38.479111 -77.862137 16,975 229 275 1408
2019-11-12 23:34:18 GMT 38.481289 -77.859009 16,900 229 275 1472
2019-11-12 23:34:14 GMT 38.483990 -77.855103 16,825 229 275 1472
2019-11-12 23:34:11 GMT 38.487343 -77.850342 16,725 228 275 1472
2019-11-12 23:34:08 GMT 38.490005 -77.846672 16,625 228 276 1472
2019-11-12 23:34:02 GMT 38.494652 -77.840271 16,525 228 275 1472
2019-11-12 23:33:59 GMT 38.498245 -77.835327 16,350 228 275 1536
2019-11-12 23:33:51 GMT 38.505203 -77.825653 16,175 229 275 1536
2019-11-12 23:33:48 GMT 38.507263 -77.822731 16,075 229 275 1536
2019-11-12 23:33:39 GMT 38.514526 -77.812439 15,750 228 276 1536
2019-11-12 23:33:36 GMT 38.517471 -77.808403 15,750 227 276 1536
2019-11-12 23:33:31 GMT 38.521324 -77.803467 15,425 219 279 1408
2019-11-12 23:33:28 GMT 38.525467 -77.798523 15,600 223 278 1472
2019-11-12 23:33:24 GMT 38.529381 -77.794250 15,525 219 279 1408
2019-11-12 23:33:21 GMT 38.535618 -77.788330 15,425 216 280 1344
2019-11-12 23:33:17 GMT 38.535618 -77.788330 15,225 211 282 1472
2019-11-12 23:33:10 GMT 38.543064 -77.782227 15,225 211 283 1472
2019-11-12 23:33:07 GMT 38.547115 -77.779175 15,100 211 282 1472
2019-11-12 23:33:02 GMT 38.553028 -77.774719 15,025 211 282 1408
2019-11-12 23:32:57 GMT 38.558800 -77.770264 14,900 212 282 1472
2019-11-12 23:32:53 GMT 38.563316 -77.766785 14,800 212 281 1408
2019-11-12 23:32:50 GMT 38.566589 -77.764153 14,725 212 281 1472
2019-11-12 23:32:46 GMT 38.570160 -77.761353 14,650 212 281 1472
2019-11-12 23:32:42 GMT 38.574921 -77.757591 14,475 212 280 1472
2019-11-12 23:32:38 GMT 38.582474 -77.751740 14,425 211 279 1472
2019-11-12 23:32:32 GMT 38.586823 -77.748474 14,275 211 278 1472
2019-11-12 23:32:29 GMT 38.593689 -77.743256 14,150 211 277 1472
2019-11-12 23:32:25 GMT 38.593689 -77.743256 14,125 212 275 1536
2019-11-12 23:32:21 GMT 38.601105 -77.737526 13,950 213 273 1536
2019-11-12 23:32:15 GMT 38.605453 -77.734123 13,850 213 273 1536
2019-11-12 23:32:10 GMT 38.609756 -77.730721 13,775 212 272 1600
2019-11-12 23:32:06 GMT 38.614426 -77.727020 13,625 212 271 1600
2019-11-12 23:32:03 GMT 38.616711 -77.725220 11,950 212 271 1600
2019-11-12 23:31:59 GMT 38.621750 -77.721344 13,500 212 270 1536
2019-11-12 23:31:54 GMT 38.627335 -77.717163 13,325 211 267 1536
2019-11-12 23:31:48 GMT 38.634109 -77.711967 13,150 212 264 1536
2019-11-12 23:31:44 GMT 38.638321 -77.708748 13,050 212 263 1536
2019-11-12 23:31:41 GMT 38.648209 -77.700928 12,375 212 255 1600
2019-11-12 23:31:34 GMT 38.648209 -77.700928 12,775 213 259 1536
2019-11-12 23:31:31 GMT 38.651299 -77.698486 12,725 213 259 1536
2019-11-12 23:31:22 GMT 38.659817 -77.691711 12,500 212 257 1536
2019-11-12 23:31:18 GMT 38.665497 -77.687317 12,375 211 255 1600
2019-11-12 23:31:14 GMT 38.668755 -77.684814 12,275 211 255 1600
2019-11-12 23:31:11 GMT 38.671967 -77.682373 12,200 211 253 1600
2019-11-12 23:31:06 GMT 38.680023 -77.676208 8,750 212 252 1600
2019-11-12 23:31:03 GMT 38.680023 -77.676208 12,025 212 252 1600
2019-11-12 23:31:00 GMT 38.682022 -77.674622 11,925 212 250 1600
2019-11-12 23:30:52 GMT 38.690311 -77.668091 11,700 212 249 1600
2019-11-12 23:30:48 GMT 38.693619 -77.665459 11,600 212 248 1920
2019-11-12 23:30:43 GMT 38.700256 -77.660202 11,275 212 248 2560
2019-11-12 23:30:40 GMT 38.702461 -77.658508 11,250 212 249 2560
2019-11-12 23:30:36 GMT 38.705841 -77.655907 11,050 211 250 2560
2019-11-12 23:30:32 GMT 38.709824 -77.652802 10,875 211 252 2624
2019-11-12 23:30:29 GMT 38.712887 -77.650513 10,800 211 252 2624
2019-11-12 23:30:26 GMT 38.716324 -77.647903 10,650 211 253 2624
2019-11-12 23:30:22 GMT 38.720894 -77.644409 10,450 212 254 2688
2019-11-12 23:30:19 GMT 38.722366 -77.643311 10,350 212 254 2688
2019-11-12 23:30:16 GMT 38.727219 -77.639542 10,250 212 255 2560
2019-11-12 23:30:12 GMT 38.730835 -77.636681 9,900 213 256 2688
2019-11-12 23:30:08 GMT 38.733463 -77.634521 9,900 213 256 2752
2019-11-12 23:30:05 GMT 38.737003 -77.631653 9,775 213 257 2880
2019-11-12 23:30:02 GMT 38.739887 -77.629333 8,750 212 263 2624
2019-11-12 23:29:59 GMT 38.744064 -77.625992 9,400 212 259 2880
2019-11-12 23:29:54 GMT 38.747772 -77.623062 9,225 212 260 3008
2019-11-12 23:29:51 GMT 38.752178 -77.619629 9,000 212 261 3072
2019-11-12 23:29:48 GMT 38.758163 -77.614944 8,875 212 261 2944
2019-11-12 23:29:45 GMT 38.758163 -77.614944 8,375 212 262 2880
2019-11-12 23:29:39 GMT 38.763817 -77.610535 8,475 212 263 2624
2019-11-12 23:29:36 GMT 38.767120 -77.607971 8,325 212 263 2560
2019-11-12 23:29:33 GMT 38.769588 -77.606018 8,300 212 262 2688
2019-11-12 23:29:30 GMT 38.773357 -77.603088 8,025 213 261 2752
2019-11-12 23:29:27 GMT 38.777500 -77.599792 7,875 213 261 2688
2019-11-12 23:29:23 GMT 38.780182 -77.597633 7,825 213 262 2560
2019-11-12 23:29:20 GMT 38.784485 -77.594116 7,575 213 262 2752
2019-11-12 23:29:17 GMT 38.786533 -77.592468 7,475 212 262 2752
2019-11-12 23:29:13 GMT 38.794968 -77.585930 7,000 212 263 2688
2019-11-12 23:29:09 GMT 38.794968 -77.585930 7,175 211 263 2560
2019-11-12 23:29:06 GMT 38.797379 -77.584106 7,025 211 263 2560
2019-11-12 23:29:01 GMT 38.804131 -77.578979 6,875 211 263 2560
2019-11-12 23:28:57 GMT 38.812225 -77.572609 6,525 212 262 2816
2019-11-12 23:28:53 GMT 38.812225 -77.572609 6,400 212 262 2752
2019-11-12 23:28:48 GMT 38.816666 -77.569092 6,200 212 262 2880
2019-11-12 23:28:45 GMT 38.819817 -77.566650 6,075 211 262 2816
2019-11-12 23:28:42 GMT 38.822250 -77.564850 5,950 210 263 2688
2019-11-12 23:28:36 GMT 38.830673 -77.559654 5,675 203 266 2304
2019-11-12 23:28:32 GMT 38.833691 -77.558167 5,550 199 267 2432
2019-11-12 23:28:25 GMT 38.843746 -77.554749 5,250 192 268 1856
2019-11-12 23:28:22 GMT 38.846214 -77.554138 5,175 191 268 1920
2019-11-12 23:28:15 GMT 38.855011 -77.552551 4,875 188 265 1920
2019-11-12 23:28:12 GMT 38.858643 -77.551956 4,850 188 264 1920
2019-11-12 23:28:04 GMT 38.867535 -77.550415 4,550 189 258 2176
2019-11-12 23:28:01 GMT 38.871597 -77.549568 4,475 190 257 2368
2019-11-12 23:27:54 GMT 38.879105 -77.548134 4,075 188 253 2048
2019-11-12 23:27:51 GMT 38.883316 -77.547356 4,100 188 252 2112
2019-11-12 23:27:44 GMT 38.891834 -77.545837 3,725 188 248 2304
2019-11-12 23:27:41 GMT 38.894348 -77.545448 3,600 189 246 2176
2019-11-12 23:27:34 GMT 38.907104 -77.542786 2,725 191 241 2432
2019-11-12 23:27:31 GMT 38.907104 -77.542786 3,275 191 241 2240
2019-11-12 23:27:23 GMT 38.914169 -77.540611 2,725 208 226 1856
2019-11-12 23:27:19 GMT 38.918564 -77.538338 2,900 205 229 1856
2019-11-12 23:27:12 GMT 38.925072 -77.533264 2,675 216 218 1728
2019-11-12 23:27:09 GMT 38.927170 -77.531296 2,600 219 212 1664
We lost coverage of the aircraft here for a total of 129 minutes
2019-11-12 21:18:21 GMT 38.905056 -77.460327 900 0 136 -1024
2019-11-12 21:18:17 GMT 38.902264 -77.460388 975 0 137 -576
2019-11-12 21:18:10 GMT 38.897934 -77.460388 1,075 0 138 -1024
2019-11-12 21:18:06 GMT 38.895538 -77.460419 1,125 0 135 -832
2019-11-12 21:18:00 GMT 38.890949 -77.460449 1,225 0 133 -576
2019-11-12 21:17:54 GMT 38.887619 -77.460419 1,275 0 132 -1024
2019-11-12 21:17:50 GMT 38.885468 -77.460358 1,325 0 131 -640
2019-11-12 21:17:47 GMT 38.883129 -77.460388 1,350 1 131 -704
2019-11-12 21:17:41 GMT 38.879379 -77.460480 1,425 1 130 -1024
2019-11-12 21:17:35 GMT 38.876770 -77.460602 1,500 1 128 -960
2019-11-12 21:17:29 GMT 38.873119 -77.460754 1,600 1 126 -640
2019-11-12 21:17:26 GMT 38.870979 -77.460815 1,625 0 126 -768
2019-11-12 21:17:23 GMT 38.868851 -77.460899 1,675 1 126 -896
2019-11-12 21:17:19 GMT 38.867023 -77.460938 1,700 1 125 -768
2019-11-12 21:17:16 GMT 38.865051 -77.461014 1,750 2 125 -704
2019-11-12 21:17:09 GMT 38.860657 -77.461197 1,825 0 123 -896
2019-11-12 21:17:06 GMT 38.859200 -77.461182 1,875 0 122 -1024
2019-11-12 21:17:02 GMT 38.857616 -77.461121 1,900 359 121 -576
2019-11-12 21:16:58 GMT 38.855255 -77.461075 1,950 0 121 -832
2019-11-12 21:16:55 GMT 38.853336 -77.460999 1,975 359 120 -768
2019-11-12 21:16:52 GMT 38.851147 -77.460938 2,050 28 167 -1536
2019-11-12 21:16:45 GMT 38.845840 -77.460938 2,175 0 120 -576
2019-11-12 21:16:34 GMT 38.841976 -77.460999 2,200 0 125 64
2019-11-12 21:16:30 GMT 38.839508 -77.461014 2,200 0 128 -512
2019-11-12 21:16:24 GMT 38.835831 -77.460938 2,250 0 134 -512
2019-11-12 21:16:19 GMT 38.832642 -77.461014 2,300 3 141 -896
2019-11-12 21:16:14 GMT 38.829361 -77.461243 2,375 7 144 -1408
2019-11-12 21:16:09 GMT 38.826195 -77.461975 2,475 18 147 -1600
2019-11-12 21:16:00 GMT 38.820049 -77.465088 2,725 26 152 -1344
2019-11-12 21:15:54 GMT 38.815796 -77.467827 2,850 26 161 -1216
2019-11-12 21:15:51 GMT 38.814148 -77.468842 2,900 26 164 -1472
2019-11-12 21:15:40 GMT 38.806366 -77.473915 3,150 27 168 -1472
2019-11-12 21:15:33 GMT 38.801895 -77.477051 3,300 28 167 -1472
2019-11-12 21:15:28 GMT 38.792816 -77.483398 3,600 28 175 -704
2019-11-12 21:15:20 GMT 38.792816 -77.483398 3,650 29 168 -1152
2019-11-12 21:15:10 GMT 38.785812 -77.488365 3,775 28 175 -704
2019-11-12 21:14:51 GMT 38.772568 -77.497437 4,075 28 179 -1344
2019-11-12 21:14:39 GMT 38.762924 -77.503708 4,400 26 172 -1088
2019-11-12 21:14:28 GMT 38.756088 -77.508179 4,550 27 163 -960
2019-11-12 21:14:21 GMT 38.751617 -77.511169 4,600 27 158 -768
2019-11-12 21:14:17 GMT 38.749058 -77.512878 4,875 27 156 -768
2019-11-12 21:14:11 GMT 38.745163 -77.515594 4,875 28 157 -256
2019-11-12 21:14:08 GMT 38.742821 -77.517212 4,800 28 153 -512
2019-11-12 21:14:04 GMT 38.740906 -77.518578 4,850 27 158 -192
2019-11-12 21:13:57 GMT 38.736443 -77.521606 5,600 182 231 -1024
2019-11-12 21:13:48 GMT 38.730469 -77.525742 4,875 28 163 -64
2019-11-12 21:13:38 GMT 38.724293 -77.532715 4,925 61 193 -512
2019-11-12 21:13:32 GMT 38.721588 -77.540070 4,925 63 194 -576
2019-11-12 21:13:26 GMT 38.720848 -77.546082 5,125 99 213 -704
2019-11-12 21:13:23 GMT 38.720940 -77.550537 5,100 91 210 -768
2019-11-12 21:13:20 GMT 38.721313 -77.553146 5,100 177 231 -1024
2019-11-12 21:13:17 GMT 38.722290 -77.557434 5,925 182 231 -1024
2019-11-12 21:13:13 GMT 38.723785 -77.561386 5,225 119 219 -1024
2019-11-12 21:13:03 GMT 38.730762 -77.571472 5,700 181 231 -1024
2019-11-12 21:13:00 GMT 38.733398 -77.573624 5,450 152 229 -960
2019-11-12 21:12:54 GMT 38.739841 -77.576965 5,550 163 231 -960
2019-11-12 21:12:50 GMT 38.744751 -77.577927 6,100 176 231 -1152
2019-11-12 21:12:44 GMT 38.749336 -77.578125 5,825 181 231 -960
2019-11-12 21:12:38 GMT 38.757393 -77.577820 5,850 182 231 -1024
2019-11-12 21:12:34 GMT 38.760372 -77.577698 5,900 182 231 -1024
2019-11-12 21:12:30 GMT 38.766048 -77.577454 5,975 183 229 -896
2019-11-12 21:12:25 GMT 38.771172 -77.577148 6,050 183 230 -896
2019-11-12 21:12:22 GMT 38.774570 -77.577026 6,100 183 229 -896
2019-11-12 21:12:17 GMT 38.785400 -77.576431 6,250 183 228 -960
2019-11-12 21:12:11 GMT 38.785400 -77.576431 6,250 183 228 -960
2019-11-12 21:12:07 GMT 38.789612 -77.576195 6,300 183 227 -1024
2019-11-12 21:12:04 GMT 38.792587 -77.576073 6,900 183 227 -1024
2019-11-12 21:12:01 GMT 38.795929 -77.575897 6,425 183 227 -1088
2019-11-12 21:11:54 GMT 38.803757 -77.575562 6,900 183 229 -832
2019-11-12 21:11:50 GMT 38.807995 -77.575439 6,600 182 227 -1024
2019-11-12 21:11:46 GMT 38.811172 -77.575302 6,650 182 228 -1024
2019-11-12 21:11:43 GMT 38.814789 -77.575195 6,900 183 229 -832
2019-11-12 21:11:39 GMT 38.819351 -77.574951 6,800 183 229 -896
2019-11-12 21:11:36 GMT 38.829174 -77.574402 6,875 184 226 -128
2019-11-12 21:11:30 GMT 38.829174 -77.574402 6,875 184 226 -192
2019-11-12 21:11:26 GMT 38.832642 -77.574165 6,875 184 226 -64
2019-11-12 21:11:22 GMT 38.836300 -77.573914 6,900 173 226 0
2019-11-12 21:11:19 GMT 38.843468 -77.573730 6,900 178 226 -64
2019-11-12 21:11:15 GMT 38.843468 -77.573730 6,900 178 226 -64
2019-11-12 21:11:10 GMT 38.849991 -77.574341 6,900 171 226 128
2019-11-12 21:11:06 GMT 38.857666 -77.576233 6,900 165 227 128
2019-11-12 21:11:02 GMT 38.857666 -77.576233 6,875 164 227 128
2019-11-12 21:10:58 GMT 38.861526 -77.577744 6,875 161 227 64
2019-11-12 21:10:55 GMT 38.864639 -77.579178 6,875 158 228 64
2019-11-12 21:10:51 GMT 38.869446 -77.581688 6,875 157 228 0
2019-11-12 21:10:46 GMT 38.874161 -77.584137 6,875 158 229 -128
2019-11-12 21:10:42 GMT 38.878098 -77.586166 6,875 158 230 0
2019-11-12 21:10:38 GMT 38.882198 -77.588257 6,875 157 233 0
2019-11-12 21:10:33 GMT 38.889267 -77.591957 6,925 158 246 448
2019-11-12 21:10:26 GMT 38.896362 -77.595596 6,925 158 246 448
2019-11-12 21:10:23 GMT 38.896362 -77.595596 6,925 158 244 384
2019-11-12 21:10:20 GMT 38.899982 -77.597412 6,900 158 248 320
2019-11-12 21:10:17 GMT 38.907009 -77.600830 6,875 159 262 0
2019-11-12 21:10:13 GMT 38.907009 -77.600830 6,875 159 259 0
2019-11-12 21:10:09 GMT 38.912201 -77.603424 6,875 158 264 -64
2019-11-12 21:10:06 GMT 38.915623 -77.605225 6,875 154 271 -192
2019-11-12 21:10:03 GMT 38.919067 -77.607246 6,875 154 271 -192
2019-11-12 21:09:59 GMT 38.923351 -77.610168 6,875 150 275 -256
2019-11-12 21:09:55 GMT 38.927490 -77.613510 6,900 140 286 64
2019-11-12 21:09:51 GMT 38.931290 -77.617096 6,900 138 288 0
2019-11-12 21:09:48 GMT 38.935127 -77.621338 6,900 138 288 0
2019-11-12 21:09:43 GMT 38.939644 -77.627136 6,900 132 287 128
2019-11-12 21:09:40 GMT 38.942276 -77.631065 6,900 130 287 0
2019-11-12 21:09:33 GMT 38.947556 -77.640625 6,900 97 269 256
2019-11-12 21:09:30 GMT 38.949654 -77.645447 6,875 111 280 128
2019-11-12 21:09:25 GMT 38.952530 -77.653633 6,875 110 280 64
2019-11-12 21:09:20 GMT 38.954353 -77.660889 6,875 99 276 -128
2019-11-12 21:09:09 GMT 38.957195 -77.680237 6,875 98 274 -64
2019-11-12 21:09:03 GMT 38.958069 -77.688324 6,875 98 274 -128
2019-11-12 21:08:59 GMT 38.958683 -77.693787 6,925 100 269 64
2019-11-12 21:08:53 GMT 38.959946 -77.705109 6,900 97 273 -128
2019-11-12 21:08:49 GMT 38.961475 -77.720764 6,900 96 269 128
2019-11-12 21:08:42 GMT 38.961475 -77.720764 6,925 96 269 64
2019-11-12 21:08:39 GMT 38.961868 -77.725525 6,900 97 269 256
2019-11-12 21:08:33 GMT 38.963058 -77.737183 6,900 99 269 64
2019-11-12 21:08:29 GMT 38.963665 -77.741638 6,875 101 270 64
2019-11-12 21:08:18 GMT 38.967297 -77.758301 6,875 123 280 -384
2019-11-12 21:08:12 GMT 38.971066 -77.768921 6,875 119 274 -192
2019-11-12 21:08:08 GMT 38.973068 -77.773438 6,900 124 275 192
2019-11-12 21:08:01 GMT 38.978050 -77.783203 6,900 124 274 128
2019-11-12 21:07:58 GMT 38.980225 -77.787262 6,900 124 274 256
2019-11-12 21:07:50 GMT 38.986477 -77.798889 6,875 124 274 128
2019-11-12 21:07:47 GMT 38.989037 -77.803711 6,850 124 274 64
2019-11-12 21:07:37 GMT 38.995228 -77.815613 6,900 123 278 -128
2019-11-12 21:07:33 GMT 38.998306 -77.821480 6,875 123 280 -320
2019-11-12 21:07:29 GMT 39.000870 -77.826431 6,900 124 281 -384
2019-11-12 21:07:25 GMT 39.004211 -77.832581 6,925 125 285 -320
2019-11-12 21:07:20 GMT 39.007378 -77.838440 6,925 124 287 -256
2019-11-12 21:07:14 GMT 39.012264 -77.847412 6,975 124 290 -256
2019-11-12 21:07:08 GMT 39.020599 -77.862976 7,050 124 295 -1152
2019-11-12 21:06:55 GMT 39.026974 -77.875305 7,300 123 301 -1600
2019-11-12 21:06:48 GMT 39.032654 -77.886230 7,550 124 305 -1728
2019-11-12 21:06:44 GMT 39.035660 -77.891930 7,550 124 305 -1728
2019-11-12 21:06:39 GMT 39.039230 -77.898499 7,725 125 309 -1216
2019-11-12 21:06:35 GMT 39.043854 -77.906860 7,825 125 311 -1024
2019-11-12 21:06:29 GMT 39.048065 -77.914551 7,900 124 310 -1280
2019-11-12 21:06:24 GMT 39.052094 -77.922142 8,075 124 305 -640
2019-11-12 21:06:14 GMT 39.060074 -77.937561 8,300 123 303 -1664
2019-11-12 21:06:03 GMT 39.068222 -77.953308 8,550 124 307 -1408
2019-11-12 21:05:53 GMT 39.076492 -77.968597 8,700 124 307 -768
2019-11-12 21:05:41 GMT 39.085957 -77.986145 8,825 124 304 -256
2019-11-12 21:05:31 GMT 39.094116 -78.001617 8,775 123 309 576
2019-11-12 21:05:22 GMT 39.101318 -78.015503 8,775 123 316 -1088
2019-11-12 21:05:12 GMT 39.109634 -78.031410 8,950 124 315 -640
2019-11-12 21:05:01 GMT 39.118404 -78.047974 9,025 124 318 -128
2019-11-12 21:04:50 GMT 39.127434 -78.064880 9,075 124 321 -448
2019-11-12 21:04:41 GMT 39.135727 -78.080193 9,200 124 322 -960
2019-11-12 21:04:30 GMT 39.144566 -78.097229 9,375 123 323 -1152
2019-11-12 21:04:20 GMT 39.152939 -78.113571 9,625 124 323 -1728
2019-11-12 21:04:09 GMT 39.162094 -78.130524 9,900 125 320 -1344
2019-11-12 21:03:59 GMT 39.170589 -78.146362 10,100 124 318 -1216
2019-11-12 21:03:48 GMT 39.187534 -78.178894 10,750 124 323 -1472
2019-11-12 21:03:38 GMT 39.187534 -78.178894 10,625 124 322 -1600
2019-11-12 21:03:28 GMT 39.196426 -78.195549 10,850 124 323 -896
2019-11-12 21:03:17 GMT 39.214279 -78.229462 10,975 123 325 256
2019-11-12 21:03:06 GMT 39.214279 -78.229462 10,950 123 326 256
2019-11-12 21:02:56 GMT 39.223286 -78.246704 10,950 124 332 -320
2019-11-12 21:02:46 GMT 39.232132 -78.263260 11,050 124 334 -832
2019-11-12 21:02:36 GMT 39.240696 -78.279724 11,150 123 338 -704
2019-11-12 21:02:24 GMT 39.250751 -78.299194 11,400 123 339 -1664
2019-11-12 21:02:15 GMT 39.259270 -78.315247 11,675 124 342 -1664
2019-11-12 21:02:05 GMT 39.269073 -78.334190 12,100 121 352 -2176
2019-11-12 21:01:55 GMT 39.276356 -78.350525 12,400 117 357 -1600
2019-11-12 21:01:45 GMT 39.284641 -78.372437 12,700 113 367 -1728
2019-11-12 21:01:19 GMT 39.298096 -78.426559 13,600 103 394 -2560
2019-11-12 21:01:12 GMT 39.300751 -78.440857 13,850 103 404 -2176
2019-11-12 21:01:02 GMT 39.306885 -78.475166 16,500 103 435 -4352
2019-11-12 21:00:59 GMT 39.306885 -78.475166 15,050 103 423 -3264
2019-11-12 21:00:52 GMT 39.309402 -78.489670 14,625 103 419 -2816
2019-11-12 21:00:41 GMT 39.314209 -78.516182 15,175 103 429 -3136
2019-11-12 21:00:32 GMT 39.318672 -78.540527 15,725 103 434 -4416
2019-11-12 21:00:20 GMT 39.323933 -78.569092 16,500 103 441 -2752
2019-11-12 21:00:11 GMT 39.328541 -78.594788 16,825 103 448 -3392
2019-11-12 21:00:00 GMT 39.333382 -78.620667 17,450 103 454 -3328
2019-11-12 20:59:49 GMT 39.338791 -78.650047 18,350 102 463 -2816
2019-11-12 20:59:39 GMT 39.347900 -78.701698 18,625 102 463 -2816
2019-11-12 20:59:30 GMT 39.347900 -78.701698 19,000 103 467 -2496
2019-11-12 20:59:19 GMT 39.353073 -78.729431 19,525 103 470 -2368
2019-11-12 20:59:10 GMT 39.358383 -78.759254 19,825 102 471 -2368
2019-11-12 20:58:56 GMT 39.364292 -78.792969 20,325 103 472 -2496
2019-11-12 20:58:46 GMT 39.370102 -78.824036 20,775 103 476 -2432
2019-11-12 20:58:35 GMT 39.375778 -78.855385 21,150 102 483 -2240
2019-11-12 20:58:30 GMT 39.377792 -78.867126 21,400 102 482 -2176
2019-11-12 20:58:27 GMT 39.379517 -78.877258 21,525 103 490 -2112
2019-11-12 20:58:05 GMT 39.390060 -78.935692 22,525 103 492 -2176
2019-11-12 20:57:55 GMT 39.395901 -78.968140 22,700 102 494 -2240
2019-11-12 20:57:46 GMT 39.399902 -78.990982 22,975 102 497 -2112
2019-11-12 20:57:36 GMT 39.404800 -79.018806 23,300 102 501 -1664
2019-11-12 20:57:27 GMT 39.410385 -79.050270 23,625 102 501 -1856
2019-11-12 20:57:15 GMT 39.415787 -79.081802 23,950 102 501 -1600
2019-11-12 20:57:01 GMT 39.422997 -79.124268 25,425 103 513 -1792
2019-11-12 20:56:50 GMT 39.432266 -79.175423 24,625 103 503 -1664
2019-11-12 20:56:44 GMT 39.432266 -79.175423 24,800 103 506 -1728
2019-11-12 20:56:28 GMT 39.440128 -79.219727 25,200 102 509 -1536
2019-11-12 20:56:22 GMT 39.443344 -79.236923 26,300 103 516 -1216
2019-11-12 20:56:12 GMT 39.449753 -79.270294 25,650 103 518 -1536
2019-11-12 20:56:01 GMT 39.454971 -79.299255 26,300 103 516 -1216
2019-11-12 20:55:51 GMT 39.460922 -79.333054 26,300 103 516 -1216
2019-11-12 20:55:42 GMT 39.466049 -79.360634 26,325 103 515 -1216
2019-11-12 20:55:39 GMT 39.467194 -79.366608 26,350 103 514 -1216
2019-11-12 20:55:30 GMT 39.472294 -79.393127 26,550 103 514 -1280
2019-11-12 20:55:19 GMT 39.478134 -79.425125 26,775 102 514 -1344
2019-11-12 20:55:09 GMT 39.484131 -79.459869 26,975 102 514 -384
2019-11-12 20:54:58 GMT 39.494823 -79.517822 27,100 102 511 -1280
2019-11-12 20:54:49 GMT 39.494823 -79.517822 27,075 103 515 -1344
2019-11-12 20:54:38 GMT 39.500179 -79.548035 27,200 102 518 -1280
2019-11-12 20:54:34 GMT 39.505672 -79.579346 27,375 102 511 -1280
2019-11-12 20:54:29 GMT 39.505672 -79.579346 27,525 103 515 -1344
2019-11-12 20:54:25 GMT 39.509811 -79.601501 27,525 102 511 -1280
2019-11-12 20:54:21 GMT 39.512188 -79.614014 28,175 103 505 -1024
2019-11-12 20:54:16 GMT 39.514656 -79.627136 27,725 102 513 -1408
2019-11-12 20:54:07 GMT 39.523037 -79.674988 27,975 102 512 -1408
2019-11-12 20:53:56 GMT 39.523037 -79.674988 28,250 102 510 -1216
2019-11-12 20:53:52 GMT 39.525738 -79.690430 28,250 102 510 -1216
2019-11-12 20:53:44 GMT 39.529495 -79.711182 28,425 103 506 -1408
2019-11-12 20:53:34 GMT 39.535324 -79.742310 28,650 102 505 -1024
2019-11-12 20:53:26 GMT 39.539608 -79.767090 28,900 101 505 -896
2019-11-12 20:53:13 GMT 39.546032 -79.803589 29,075 105 501 -1024
2019-11-12 20:53:02 GMT 39.554272 -79.833557 29,150 113 487 -832
2019-11-12 20:52:54 GMT 39.573532 -79.879021 29,275 125 466 -960
2019-11-12 20:52:43 GMT 39.588638 -79.902725 29,450 126 462 -896
2019-11-12 20:52:33 GMT 39.588638 -79.902725 29,600 133 451 -1024
2019-11-12 20:52:21 GMT 39.604843 -79.924286 29,775 135 446 -960
2019-11-12 20:52:13 GMT 39.617752 -79.940880 29,925 134 446 -1088
2019-11-12 20:52:02 GMT 39.634003 -79.962196 30,100 134 446 -960
2019-11-12 20:51:57 GMT 39.640629 -79.971069 30,175 134 447 -1024
2019-11-12 20:51:47 GMT 39.653595 -79.988289 30,325 134 444 -960
2019-11-12 20:51:39 GMT 39.666916 -80.005547 30,475 135 442 -960
2019-11-12 20:51:29 GMT 39.679642 -80.022026 30,600 134 441 -960
2019-11-12 20:51:20 GMT 39.693375 -80.040237 30,850 134 441 -1024
2019-11-12 20:51:14 GMT 39.709854 -80.062210 31,100 134 440 -1024
2019-11-12 20:51:08 GMT 39.709854 -80.062210 30,950 134 439 -960
2019-11-12 20:50:59 GMT 39.723862 -80.080566 31,100 134 439 -960
2019-11-12 20:50:54 GMT 39.729858 -80.088425 31,175 134 439 -960
2019-11-12 20:50:45 GMT 39.744781 -80.107826 31,350 134 441 -1152
2019-11-12 20:50:36 GMT 39.756775 -80.123711 31,475 134 442 -1024
2019-11-12 20:50:31 GMT 39.763046 -80.132126 31,550 134 451 -1280
2019-11-12 20:50:27 GMT 39.768768 -80.139771 31,625 134 445 -832
2019-11-12 20:50:23 GMT 39.775955 -80.149292 31,700 134 445 -832
2019-11-12 20:50:15 GMT 39.787308 -80.164131 31,800 135 446 -1024
2019-11-12 20:50:11 GMT 39.793762 -80.172432 31,900 134 449 -1408
2019-11-12 20:50:05 GMT 39.800217 -80.180847 31,975 134 449 -1344
2019-11-12 20:50:00 GMT 39.808075 -80.191284 32,125 134 450 -1344
2019-11-12 20:49:55 GMT 39.816467 -80.202583 32,225 133 453 -1216
2019-11-12 20:49:49 GMT 39.825806 -80.215118 32,350 133 454 -1088
2019-11-12 20:49:46 GMT 39.828735 -80.219063 32,550 134 454 -1216
2019-11-12 20:49:40 GMT 39.837868 -80.231079 32,525 134 454 -1280
2019-11-12 20:49:35 GMT 39.846203 -80.241943 32,625 134 456 -1280
2019-11-12 20:49:28 GMT 39.854874 -80.253220 32,750 134 457 -1152
2019-11-12 20:49:25 GMT 39.859936 -80.259888 32,825 134 459 -1280
2019-11-12 20:49:20 GMT 39.866451 -80.268555 32,975 134 463 -256
2019-11-12 20:49:14 GMT 39.877159 -80.282959 32,975 134 464 64
2019-11-12 20:49:10 GMT 39.894287 -80.305817 32,975 134 468 -192
2019-11-12 20:49:02 GMT 39.894287 -80.305817 32,975 134 468 -256
2019-11-12 20:48:59 GMT 39.898544 -80.311432 33,000 134 468 -256
2019-11-12 20:48:56 GMT 39.904678 -80.319496 33,000 134 470 -192
2019-11-12 20:48:53 GMT 39.907417 -80.323120 33,000 134 473 0
2019-11-12 20:48:50 GMT 39.913879 -80.331551 33,000 134 473 128
2019-11-12 20:48:41 GMT 39.925461 -80.347046 33,000 133 473 0
2019-11-12 20:48:37 GMT 39.945511 -80.374146 33,000 133 473 -64
2019-11-12 20:48:29 GMT 39.945511 -80.374146 33,000 134 473 0
2019-11-12 20:48:24 GMT 39.952240 -80.383118 33,000 133 476 0
2019-11-12 20:48:21 GMT 39.961792 -80.395699 33,000 134 473 128
2019-11-12 20:48:17 GMT 39.961792 -80.395699 32,975 133 475 64
2019-11-12 20:48:08 GMT 39.978745 -80.417969 33,000 134 474 -128
2019-11-12 20:48:00 GMT 39.990700 -80.433907 33,000 133 475 64
2019-11-12 20:47:50 GMT 40.005020 -80.453369 33,000 133 476 0
2019-11-12 20:47:46 GMT 40.009872 -80.459961 33,000 133 475 64
2019-11-12 20:47:39 GMT 40.021889 -80.475975 33,000 134 475 0
2019-11-12 20:47:36 GMT 40.025566 -80.480911 33,000 134 475 128
2019-11-12 20:47:26 GMT 40.041367 -80.501709 33,000 134 476 -128
2019-11-12 20:47:19 GMT 40.052799 -80.516861 33,000 134 477 -64
2019-11-12 20:47:16 GMT 40.058029 -80.523926 33,000 133 478 0
2019-11-12 20:47:08 GMT 40.068676 -80.538521 33,000 133 478 64
2019-11-12 20:47:05 GMT 40.073273 -80.544739 33,000 133 478 0
2019-11-12 20:46:59 GMT 40.084991 -80.560486 33,000 134 478 0
2019-11-12 20:46:56 GMT 40.088058 -80.564575 33,000 134 477 0
2019-11-12 20:46:52 GMT 40.094925 -80.573547 33,000 134 477 -64
2019-11-12 20:46:48 GMT 40.106380 -80.588715 33,000 134 478 -128
2019-11-12 20:46:44 GMT 40.106380 -80.588715 33,000 134 478 -64
2019-11-12 20:46:40 GMT 40.111923 -80.596207 33,000 133 478 -64
2019-11-12 20:46:37 GMT 40.117462 -80.603691 33,000 133 479 -64
2019-11-12 20:46:31 GMT 40.126923 -80.616699 33,000 133 479 128
2019-11-12 20:46:27 GMT 40.132732 -80.624603 33,000 133 478 64
2019-11-12 20:46:23 GMT 40.138226 -80.632095 33,000 133 478 128
2019-11-12 20:46:17 GMT 40.148746 -80.646141 33,000 134 478 0
2019-11-12 20:46:10 GMT 40.160248 -80.661377 33,000 134 478 -128
2019-11-12 20:46:07 GMT 40.163956 -80.666321 33,000 133 479 -64
2019-11-12 20:46:02 GMT 40.172207 -80.677666 33,000 133 479 -64
2019-11-12 20:45:58 GMT 40.176773 -80.683960 33,000 132 480 -64
2019-11-12 20:45:55 GMT 40.182495 -80.692085 33,000 132 480 128
2019-11-12 20:45:51 GMT 40.186432 -80.697571 33,000 133 480 64
2019-11-12 20:45:46 GMT 40.193756 -80.707703 33,000 133 479 64
2019-11-12 20:45:42 GMT 40.202793 -80.719551 33,000 135 477 0
2019-11-12 20:45:38 GMT 40.208130 -80.726379 33,000 136 476 -64
2019-11-12 20:45:31 GMT 40.218246 -80.739258 33,000 134 478 0
2019-11-12 20:45:24 GMT 40.231247 -80.756653 33,000 133 478 -64
2019-11-12 20:45:21 GMT 40.235237 -80.762062 33,000 133 479 64
2019-11-12 20:45:17 GMT 40.241337 -80.770424 33,000 134 478 64
2019-11-12 20:45:10 GMT 40.250603 -80.782845 33,000 134 478 -128
2019-11-12 20:45:05 GMT 40.257751 -80.792358 33,000 134 478 0
2019-11-12 20:45:02 GMT 40.263977 -80.800598 33,000 134 478 -128
2019-11-12 20:44:59 GMT 40.267685 -80.805542 33,000 134 478 -128
2019-11-12 20:44:55 GMT 40.273865 -80.813843 33,000 133 479 128
2019-11-12 20:44:50 GMT 40.283066 -80.826355 33,000 133 480 64
2019-11-12 20:44:45 GMT 40.290390 -80.836487 33,000 133 480 0
2019-11-12 20:44:40 GMT 40.296223 -80.844460 33,000 133 479 0
2019-11-12 20:44:37 GMT 40.301762 -80.851944 33,000 134 478 -128
2019-11-12 20:44:33 GMT 40.307007 -80.858948 33,000 134 478 -64
2019-11-12 20:44:29 GMT 40.315353 -80.870049 33,025 134 477 0
2019-11-12 20:44:23 GMT 40.331177 -80.891113 33,000 134 478 128
2019-11-12 20:44:18 GMT 40.331177 -80.891113 32,975 134 478 0
2019-11-12 20:44:12 GMT 40.339142 -80.901917 33,000 133 478 -128
2019-11-12 20:44:07 GMT 40.347702 -80.913696 33,000 133 478 -64
2019-11-12 20:44:01 GMT 40.355904 -80.925041 33,000 133 478 0
2019-11-12 20:43:57 GMT 40.362946 -80.934631 33,000 133 478 64
2019-11-12 20:43:52 GMT 40.371918 -80.946640 33,000 134 477 192
2019-11-12 20:43:47 GMT 40.378712 -80.955757 33,000 134 478 -64
2019-11-12 20:43:41 GMT 40.387932 -80.968178 33,000 133 478 -128
2019-11-12 20:43:36 GMT 40.395889 -80.979103 33,000 133 478 0
2019-11-12 20:43:30 GMT 40.406178 -80.993523 33,000 133 478 0
2019-11-12 20:43:26 GMT 40.410690 -80.999817 33,000 133 478 64
2019-11-12 20:43:19 GMT 40.421402 -81.014435 33,000 133 478 64
2019-11-12 20:43:14 GMT 40.436462 -81.034912 33,000 133 477 0
2019-11-12 20:43:10 GMT 40.436462 -81.034912 33,000 134 478 0
2019-11-12 20:43:04 GMT 40.443192 -81.044067 33,000 133 478 64
2019-11-12 20:42:58 GMT 40.455151 -81.060310 33,000 134 478 0
2019-11-12 20:42:55 GMT 40.459480 -81.066177 32,975 134 478 0
2019-11-12 20:42:52 GMT 40.462551 -81.070358 32,975 134 478 0
2019-11-12 20:42:48 GMT 40.468697 -81.078728 33,000 133 478 -64
2019-11-12 20:42:42 GMT 40.485580 -81.101746 33,000 133 479 -128
2019-11-12 20:42:38 GMT 40.485580 -81.101746 33,000 133 478 -64
2019-11-12 20:42:34 GMT 40.491417 -81.109688 33,000 133 479 128
2019-11-12 20:42:31 GMT 40.502151 -81.124390 33,000 133 479 128
2019-11-12 20:42:26 GMT 40.502151 -81.124390 33,000 133 479 64
2019-11-12 20:42:22 GMT 40.507336 -81.131477 33,000 133 480 128
2019-11-12 20:42:19 GMT 40.513527 -81.139900 33,000 133 480 0
2019-11-12 20:42:15 GMT 40.519363 -81.147888 33,000 133 479 -128
2019-11-12 20:42:12 GMT 40.523071 -81.152893 33,000 133 479 -192
2019-11-12 20:42:09 GMT 40.530396 -81.162964 33,000 133 479 -128
2019-11-12 20:42:06 GMT 40.533463 -81.167175 33,000 133 478 -64
2019-11-12 20:42:03 GMT 40.538666 -81.174294 33,000 133 479 64
2019-11-12 20:41:59 GMT 40.545731 -81.183960 33,000 133 479 128
2019-11-12 20:41:55 GMT 40.550350 -81.190277 33,000 133 479 64
2019-11-12 20:41:50 GMT 40.557705 -81.200325 33,000 133 479 0
2019-11-12 20:41:45 GMT 40.566921 -81.212936 33,000 133 480 0
2019-11-12 20:41:40 GMT 40.574883 -81.223862 33,000 133 479 -64
2019-11-12 20:41:34 GMT 40.582535 -81.234375 33,000 133 479 -128
2019-11-12 20:41:31 GMT 40.586838 -81.240295 33,000 133 479 -64
2019-11-12 20:41:24 GMT 40.599106 -81.257141 33,000 133 479 256
2019-11-12 20:41:19 GMT 40.607376 -81.268494 32,975 133 480 128
2019-11-12 20:41:14 GMT 40.612869 -81.276108 32,975 133 480 -64
2019-11-12 20:41:10 GMT 40.620876 -81.287033 33,000 133 479 -128
2019-11-12 20:41:03 GMT 40.631058 -81.300903 33,000 133 480 -192
2019-11-12 20:40:59 GMT 40.635635 -81.307190 33,025 133 479 -128
2019-11-12 20:40:54 GMT 40.643967 -81.318481 33,000 133 479 192
2019-11-12 20:40:50 GMT 40.651291 -81.328613 33,000 133 480 128
2019-11-12 20:40:47 GMT 40.655930 -81.334908 33,000 133 480 -64
2019-11-12 20:40:43 GMT 40.660492 -81.341248 33,000 133 480 -64
2019-11-12 20:40:38 GMT 40.668175 -81.351822 33,000 133 480 0
2019-11-12 20:40:35 GMT 40.673714 -81.359375 33,000 133 480 0
2019-11-12 20:40:31 GMT 40.680130 -81.368286 33,000 133 479 0
2019-11-12 20:40:27 GMT 40.684746 -81.374611 33,000 133 480 -64
2019-11-12 20:40:24 GMT 40.690891 -81.383034 33,000 133 480 64
2019-11-12 20:40:19 GMT 40.698246 -81.393150 33,000 133 480 64
2019-11-12 20:40:14 GMT 40.704998 -81.402451 33,000 133 480 64
2019-11-12 20:40:10 GMT 40.712353 -81.412560 33,000 133 480 -64
2019-11-12 20:40:06 GMT 40.716030 -81.417679 33,000 133 480 64
2019-11-12 20:40:02 GMT 40.725201 -81.430351 33,000 133 480 0
2019-11-12 20:39:59 GMT 40.728275 -81.434593 33,000 133 480 -64
2019-11-12 20:39:56 GMT 40.734100 -81.442627 33,000 133 480 -128
2019-11-12 20:39:51 GMT 40.740280 -81.451111 33,000 133 480 -128
2019-11-12 20:39:48 GMT 40.746414 -81.459534 33,000 133 480 0
2019-11-12 20:39:45 GMT 40.748840 -81.462891 33,000 133 480 0
2019-11-12 20:39:41 GMT 40.757137 -81.474297 33,000 133 480 -64
2019-11-12 20:39:35 GMT 40.766006 -81.486572 33,000 133 480 0
2019-11-12 20:39:31 GMT 40.773972 -81.497620 33,000 133 479 -64
2019-11-12 20:39:27 GMT 40.777039 -81.501831 33,000 133 479 -64
2019-11-12 20:39:24 GMT 40.780701 -81.506958 33,000 133 479 -64
2019-11-12 20:39:20 GMT 40.789261 -81.518799 33,000 133 479 0
2019-11-12 20:39:15 GMT 40.794472 -81.525986 33,000 133 479 64
2019-11-12 20:39:12 GMT 40.800247 -81.533997 33,000 133 479 64
2019-11-12 20:39:09 GMT 40.806667 -81.542900 33,000 133 479 64
2019-11-12 20:39:06 GMT 40.810345 -81.547958 33,000 133 478 0
2019-11-12 20:39:02 GMT 40.816772 -81.556824 33,000 133 479 64
2019-11-12 20:38:59 GMT 40.821625 -81.563599 33,000 133 479 0
2019-11-12 20:38:54 GMT 40.828949 -81.573792 33,000 133 479 0
2019-11-12 20:38:51 GMT 40.832016 -81.578003 33,000 133 479 0
2019-11-12 20:38:46 GMT 40.838463 -81.586906 33,000 133 479 64
2019-11-12 20:38:43 GMT 40.843956 -81.594521 33,000 133 480 0
2019-11-12 20:38:39 GMT 40.858063 -81.613998 33,000 133 479 -64
2019-11-12 20:38:34 GMT 40.858063 -81.613998 33,000 133 479 0
2019-11-12 20:38:31 GMT 40.863552 -81.621613 33,000 133 479 0
2019-11-12 20:38:26 GMT 40.871796 -81.633057 33,000 133 480 -64
2019-11-12 20:38:22 GMT 40.876694 -81.639832 33,000 133 480 0
2019-11-12 20:38:19 GMT 40.881897 -81.647079 33,000 133 480 0
2019-11-12 20:38:15 GMT 40.886444 -81.653503 33,000 133 481 0
2019-11-12 20:38:12 GMT 40.892231 -81.661568 33,000 133 481 64
2019-11-12 20:38:08 GMT 40.897770 -81.669243 33,000 133 481 64
2019-11-12 20:38:05 GMT 40.902054 -81.675232 33,000 133 481 64
2019-11-12 20:38:00 GMT 40.913692 -81.691338 33,000 133 480 0
2019-11-12 20:37:53 GMT 40.922012 -81.702820 33,000 133 481 -64
2019-11-12 20:37:50 GMT 40.925980 -81.708382 33,000 133 481 64
2019-11-12 20:37:47 GMT 40.931854 -81.716431 32,975 133 481 128
2019-11-12 20:37:43 GMT 40.935562 -81.721497 32,975 133 482 64
2019-11-12 20:37:40 GMT 40.942337 -81.730896 33,000 133 482 -64
2019-11-12 20:37:37 GMT 40.952469 -81.744957 33,000 133 482 -192
2019-11-12 20:37:33 GMT 40.952469 -81.744957 33,000 133 482 -192
2019-11-12 20:37:30 GMT 40.958008 -81.752640 33,000 133 483 64
2019-11-12 20:37:24 GMT 40.965591 -81.763245 33,000 133 483 0
2019-11-12 20:37:19 GMT 40.973186 -81.773987 33,000 133 483 -128
2019-11-12 20:37:12 GMT 40.988251 -81.795166 33,025 133 483 128
2019-11-12 20:37:09 GMT 40.988251 -81.795166 33,000 133 483 64
2019-11-12 20:36:59 GMT 41.005165 -81.818932 33,000 133 484 -128
2019-11-12 20:36:56 GMT 41.010101 -81.825798 33,000 133 484 0
2019-11-12 20:36:49 GMT 41.020576 -81.840401 33,000 133 484 -128
2019-11-12 20:36:42 GMT 41.029495 -81.852905 33,025 133 484 -64
2019-11-12 20:36:39 GMT 41.034725 -81.860191 33,025 133 484 0
2019-11-12 20:36:35 GMT 41.039978 -81.867554 33,000 133 484 256
2019-11-12 20:36:31 GMT 41.047943 -81.878723 32,975 133 485 64
2019-11-12 20:36:28 GMT 41.051010 -81.883057 32,975 133 485 128
2019-11-12 20:36:25 GMT 41.066753 -81.905075 33,000 133 485 -128
2019-11-12 20:36:19 GMT 41.066753 -81.905075 33,000 133 485 -128
2019-11-12 20:36:16 GMT 41.070740 -81.910645 33,000 133 485 -128
2019-11-12 20:36:08 GMT 41.083099 -81.927917 33,000 133 486 0
2019-11-12 20:35:56 GMT 41.101593 -81.953857 33,000 133 485 -64
2019-11-12 20:35:53 GMT 41.106884 -81.961189 33,000 133 486 -64
2019-11-12 20:35:50 GMT 41.111572 -81.967651 33,000 133 485 128
2019-11-12 20:35:47 GMT 41.119221 -81.978294 33,000 133 486 64
2019-11-12 20:35:39 GMT 41.128281 -81.990967 33,000 133 486 128
2019-11-12 20:35:35 GMT 41.135010 -82.000427 33,000 132 487 64
2019-11-12 20:35:32 GMT 41.139050 -82.006195 33,000 132 487 0
2019-11-12 20:35:27 GMT 41.155930 -82.030212 33,000 132 487 -128
2019-11-12 20:35:22 GMT 41.155930 -82.030212 33,000 133 486 -128
2019-11-12 20:35:18 GMT 41.159637 -82.035400 33,000 133 486 -64
2019-11-12 20:35:14 GMT 41.166096 -82.044525 33,000 133 486 128
2019-11-12 20:35:08 GMT 41.176208 -82.058655 33,000 133 486 64
2019-11-12 20:35:05 GMT 41.179039 -82.062630 33,000 133 487 128
2019-11-12 20:35:00 GMT 41.188908 -82.076485 33,000 133 486 -128
2019-11-12 20:34:56 GMT 41.192074 -82.080978 33,000 133 487 -192
2019-11-12 20:34:53 GMT 41.197861 -82.089172 33,000 133 486 -64
2019-11-12 20:34:50 GMT 41.202549 -82.095772 33,000 133 486 -64
2019-11-12 20:34:45 GMT 41.210220 -82.106689 33,000 133 486 64
2019-11-12 20:34:40 GMT 41.218231 -82.117981 33,000 133 486 64
2019-11-12 20:34:34 GMT 41.227219 -82.130547 33,000 133 486 64
2019-11-12 20:34:31 GMT 41.231873 -82.137024 33,000 133 486 0
2019-11-12 20:34:26 GMT 41.248535 -82.160461 33,000 133 487 -128
2019-11-12 20:34:21 GMT 41.255905 -82.171021 33,000 132 487 0
2019-11-12 20:34:16 GMT 41.255905 -82.171021 33,000 132 487 -64
2019-11-12 20:34:13 GMT 41.259808 -82.176613 33,000 132 487 64
2019-11-12 20:34:09 GMT 41.264790 -82.183723 33,000 133 486 0
2019-11-12 20:34:03 GMT 41.274612 -82.197647 33,000 133 487 192
2019-11-12 20:34:00 GMT 41.280804 -82.206383 33,000 133 487 0
2019-11-12 20:33:55 GMT 41.289413 -82.218620 33,000 133 488 0
2019-11-12 20:33:52 GMT 41.291882 -82.222115 33,000 133 488 64
2019-11-12 20:33:49 GMT 41.296555 -82.228638 33,000 133 487 -128
2019-11-12 20:33:43 GMT 41.305519 -82.241280 33,000 133 487 -128
2019-11-12 20:33:38 GMT 41.315437 -82.255203 33,000 133 487 0
2019-11-12 20:33:32 GMT 41.324387 -82.267822 33,000 133 488 64
2019-11-12 20:33:27 GMT 41.330429 -82.276428 33,000 133 488 64
2019-11-12 20:33:23 GMT 41.338440 -82.287842 33,000 133 488 64
2019-11-12 20:33:17 GMT 41.346207 -82.298958 33,000 132 488 -64
2019-11-12 20:33:12 GMT 41.353611 -82.309509 33,000 133 489 -64
2019-11-12 20:33:07 GMT 41.362736 -82.322495 33,000 133 488 -64
2019-11-12 20:33:03 GMT 41.368877 -82.331291 33,000 133 488 64
2019-11-12 20:32:58 GMT 41.376419 -82.341965 33,000 133 488 0
2019-11-12 20:32:51 GMT 41.386597 -82.356445 33,000 133 489 0
2019-11-12 20:32:46 GMT 41.395248 -82.368744 33,000 133 489 -64
2019-11-12 20:32:42 GMT 41.401382 -82.377426 33,000 133 489 -64
2019-11-12 20:32:37 GMT 41.409145 -82.388519 33,000 132 489 64
2019-11-12 20:32:31 GMT 41.417152 -82.399956 33,000 132 490 128
2019-11-12 20:32:26 GMT 41.424557 -82.410622 33,000 132 491 0
2019-11-12 20:32:23 GMT 41.429810 -82.418121 33,000 132 490 64
2019-11-12 20:32:20 GMT 41.445549 -82.440643 33,000 132 491 64
2019-11-12 20:32:13 GMT 41.445549 -82.440643 33,000 132 490 -64
2019-11-12 20:32:10 GMT 41.449226 -82.445816 33,000 132 491 -64
2019-11-12 20:32:03 GMT 41.460022 -82.461319 33,000 132 491 0
2019-11-12 20:31:59 GMT 41.472782 -82.479538 33,000 132 491 -64
2019-11-12 20:31:54 GMT 41.481766 -82.492409 33,000 132 491 64
2019-11-12 20:31:50 GMT 41.481766 -82.492409 33,000 132 491 -64
2019-11-12 20:31:45 GMT 41.489403 -82.503304 33,000 132 491 -64
2019-11-12 20:31:40 GMT 41.497147 -82.514313 33,000 132 491 -128
2019-11-12 20:31:33 GMT 41.506256 -82.527313 33,000 133 491 -64
2019-11-12 20:31:29 GMT 41.512711 -82.536537 33,000 133 491 128
2019-11-12 20:31:24 GMT 41.522003 -82.549706 33,000 133 491 0
2019-11-12 20:31:21 GMT 41.525116 -82.554199 33,000 133 492 0
2019-11-12 20:31:18 GMT 41.530460 -82.561745 33,000 133 492 64
2019-11-12 20:31:13 GMT 41.537704 -82.571991 33,000 133 492 -64
2019-11-12 20:31:09 GMT 41.544754 -82.581993 33,000 133 493 64
2019-11-12 20:31:03 GMT 41.554764 -82.596367 33,000 132 493 0
2019-11-12 20:31:00 GMT 41.565445 -82.611885 33,000 132 493 -128
2019-11-12 20:30:56 GMT 41.565445 -82.611885 33,000 132 493 -128
2019-11-12 20:30:51 GMT 41.573292 -82.623322 33,000 132 493 -64
2019-11-12 20:30:48 GMT 41.577896 -82.629982 33,000 132 493 0
2019-11-12 20:30:40 GMT 41.588745 -82.645615 33,000 133 493 64
2019-11-12 20:30:37 GMT 41.593681 -82.652641 33,000 133 492 64
2019-11-12 20:30:30 GMT 41.605865 -82.669937 33,000 133 492 64
2019-11-12 20:30:27 GMT 41.609924 -82.675697 32,975 132 492 -64
2019-11-12 20:30:23 GMT 41.616165 -82.684578 33,000 133 492 -64
2019-11-12 20:30:17 GMT 41.625732 -82.698402 33,000 132 492 -64
2019-11-12 20:30:10 GMT 41.637672 -82.715874 33,025 132 491 64
2019-11-12 20:30:05 GMT 41.641350 -82.721298 33,000 132 492 128
2019-11-12 20:30:00 GMT 41.651871 -82.736443 33,000 133 491 128
2019-11-12 20:29:56 GMT 41.658108 -82.745255 33,000 133 491 64
2019-11-12 20:29:52 GMT 41.669678 -82.761635 32,975 133 492 -64
2019-11-12 20:29:44 GMT 41.675518 -82.770103 32,975 132 492 -64
2019-11-12 20:29:39 GMT 41.683731 -82.782356 33,000 131 493 -64
2019-11-12 20:29:35 GMT 41.689728 -82.791473 33,000 131 493 -128
2019-11-12 20:29:28 GMT 41.699844 -82.807076 33,000 130 492 0
2019-11-12 20:29:24 GMT 41.705498 -82.815964 33,000 128 494 -64
2019-11-12 20:29:18 GMT 41.714298 -82.829948 33,000 129 494 0
2019-11-12 20:29:13 GMT 41.729553 -82.855080 33,000 128 494 -64
2019-11-12 20:29:08 GMT 41.729553 -82.855080 33,000 127 494 -64
2019-11-12 20:29:04 GMT 41.734825 -82.864319 33,000 126 495 -128
2019-11-12 20:28:57 GMT 41.744843 -82.882607 33,000 125 495 64
2019-11-12 20:28:54 GMT 41.748550 -82.889534 33,000 125 495 64
2019-11-12 20:28:46 GMT 41.759262 -82.909325 33,000 125 495 -64
2019-11-12 20:28:42 GMT 41.762512 -82.915382 33,000 125 493 0
2019-11-12 20:28:38 GMT 41.769695 -82.928764 33,000 125 494 0
2019-11-12 20:28:33 GMT 41.776585 -82.941734 33,000 125 493 0
2019-11-12 20:28:25 GMT 41.787617 -82.962685 33,000 125 491 64
2019-11-12 20:28:21 GMT 41.799362 -82.984978 33,000 125 484 -64
2019-11-12 20:28:15 GMT 41.799362 -82.984978 33,000 125 488 0
2019-11-12 20:28:12 GMT 41.803722 -82.993149 33,000 125 486 0
2019-11-12 20:28:05 GMT 41.816986 -83.018127 33,000 125 484 0
2019-11-12 20:28:02 GMT 41.816986 -83.018127 33,000 125 484 0
2019-11-12 20:27:53 GMT 41.827976 -83.039078 33,000 125 478 128
2019-11-12 20:27:50 GMT 41.830677 -83.044250 33,000 125 481 0
2019-11-12 20:27:44 GMT 41.843899 -83.069412 33,000 125 477 64
2019-11-12 20:27:41 GMT 41.850769 -83.082420 33,000 125 476 -64
2019-11-12 20:27:36 GMT 41.850769 -83.082420 33,000 125 473 64
2019-11-12 20:27:30 GMT 41.857586 -83.095345 33,000 125 472 0
2019-11-12 20:27:23 GMT 41.865589 -83.110550 33,000 125 456 0
2019-11-12 20:27:19 GMT 41.872108 -83.122940 33,000 125 468 -64
2019-11-12 20:27:10 GMT 41.882488 -83.142746 33,000 125 452 0
2019-11-12 20:27:07 GMT 41.892872 -83.162354 33,000 125 460 0
2019-11-12 20:27:02 GMT 41.892872 -83.162354 33,000 125 457 128
2019-11-12 20:26:59 GMT 41.895199 -83.166824 33,000 125 459 -64
2019-11-12 20:26:53 GMT 41.904327 -83.184166 33,000 125 455 0
2019-11-12 20:26:50 GMT 41.907257 -83.189667 33,000 125 452 0
2019-11-12 20:26:47 GMT 41.911606 -83.197968 33,000 125 452 0
2019-11-12 20:26:42 GMT 41.917171 -83.208466 33,000 125 445 64
2019-11-12 20:26:39 GMT 41.920670 -83.215195 33,000 125 450 -64
2019-11-12 20:26:36 GMT 41.924515 -83.222435 33,000 125 447 0
2019-11-12 20:26:28 GMT 41.932663 -83.237976 33,000 125 445 64
2019-11-12 20:26:25 GMT 41.937141 -83.246475 33,000 125 442 -128
2019-11-12 20:26:18 GMT 41.945103 -83.261742 33,000 124 438 64
2019-11-12 20:26:14 GMT 41.949921 -83.270874 33,000 124 434 0
2019-11-12 20:26:08 GMT 41.957161 -83.284737 33,000 124 434 0
2019-11-12 20:26:03 GMT 41.962189 -83.294380 33,025 125 430 -64
2019-11-12 20:26:00 GMT 41.965401 -83.300514 33,025 125 430 -64
2019-11-12 20:25:56 GMT 41.968826 -83.307014 33,025 124 427 -64
2019-11-12 20:25:50 GMT 41.976711 -83.322166 33,025 124 422 -64
2019-11-12 20:25:47 GMT 41.980545 -83.329430 33,025 125 421 0
2019-11-12 20:25:43 GMT 41.988770 -83.345222 33,025 124 417 0
2019-11-12 20:25:40 GMT 41.992081 -83.351524 33,025 124 415 128
2019-11-12 20:25:36 GMT 41.992081 -83.351524 33,025 124 415 320
2019-11-12 20:25:29 GMT 41.999496 -83.365883 32,975 124 412 256
2019-11-12 20:25:26 GMT 42.003201 -83.372948 32,975 125 411 192
2019-11-12 20:25:22 GMT 42.007370 -83.380859 32,950 125 409 64
2019-11-12 20:25:19 GMT 42.010601 -83.387062 32,950 125 406 320
2019-11-12 20:25:16 GMT 42.014931 -83.395302 32,925 125 404 896
2019-11-12 20:25:13 GMT 42.017761 -83.400650 32,900 120 407 1216
2019-11-12 20:25:09 GMT 42.022614 -83.409866 32,800 124 404 1344
2019-11-12 20:25:02 GMT 42.030029 -83.424683 32,650 122 406 1152
2019-11-12 20:24:58 GMT 42.033554 -83.432426 32,575 120 408 1152
2019-11-12 20:24:54 GMT 42.036987 -83.440285 32,500 119 408 1216
2019-11-12 20:24:50 GMT 42.040604 -83.449219 32,400 117 409 1344
2019-11-12 20:24:47 GMT 42.045593 -83.462631 32,275 114 411 1280
2019-11-12 20:24:44 GMT 42.048031 -83.469841 32,225 114 411 1408
2019-11-12 20:24:37 GMT 42.050858 -83.478806 32,125 111 411 1280
2019-11-12 20:24:34 GMT 42.052872 -83.485748 32,075 111 412 1344
2019-11-12 20:24:31 GMT 42.054501 -83.491684 32,025 108 413 1216
2019-11-12 20:24:28 GMT 42.057037 -83.501961 31,925 107 414 1344
2019-11-12 20:24:23 GMT 42.059509 -83.512764 31,825 106 414 1280
2019-11-12 20:24:19 GMT 42.061951 -83.524132 31,725 106 414 1408
2019-11-12 20:24:15 GMT 42.064278 -83.534996 31,600 106 414 1344
2019-11-12 20:24:07 GMT 42.068207 -83.553276 31,450 106 414 1216
2019-11-12 20:24:02 GMT 42.070793 -83.565399 31,350 106 414 1152
2019-11-12 20:23:56 GMT 42.073883 -83.579674 31,250 106 413 1280
2019-11-12 20:23:52 GMT 42.076218 -83.590477 31,150 106 413 1216
2019-11-12 20:23:48 GMT 42.079651 -83.606522 30,975 106 412 1280
2019-11-12 20:23:42 GMT 42.081528 -83.615318 30,950 106 412 1344
2019-11-12 20:23:36 GMT 42.086063 -83.636490 30,750 106 412 1280
2019-11-12 20:23:29 GMT 42.088764 -83.649261 30,700 106 412 1344
2019-11-12 20:23:26 GMT 42.089722 -83.653709 30,600 106 412 1344
2019-11-12 20:23:22 GMT 42.092056 -83.664513 30,500 105 411 1344
2019-11-12 20:23:18 GMT 42.094116 -83.674370 30,350 106 412 1408
2019-11-12 20:23:14 GMT 42.095993 -83.682922 30,325 106 412 1408
2019-11-12 20:23:08 GMT 42.099052 -83.697426 30,175 106 412 1536
2019-11-12 20:23:04 GMT 42.101257 -83.707581 30,075 106 412 1472
2019-11-12 20:23:01 GMT 42.102867 -83.715179 29,950 106 413 1408
2019-11-12 20:22:57 GMT 42.104416 -83.722565 29,925 106 413 1344
2019-11-12 20:22:54 GMT 42.106934 -83.734360 28,650 105 418 1536
2019-11-12 20:22:49 GMT 42.109341 -83.745522 29,750 105 411 1408
2019-11-12 20:22:46 GMT 42.111145 -83.754082 29,675 106 412 1600
2019-11-12 20:22:42 GMT 42.112610 -83.760956 29,500 106 413 1856
2019-11-12 20:22:39 GMT 42.114182 -83.768387 29,450 105 415 1728
2019-11-12 20:22:36 GMT 42.116226 -83.777740 29,325 105 414 1984
2019-11-12 20:22:33 GMT 42.117996 -83.786148 29,225 105 414 1728
2019-11-12 20:22:30 GMT 42.120140 -83.796112 29,075 106 416 1664
2019-11-12 20:22:26 GMT 42.121674 -83.803398 28,925 106 417 1664
2019-11-12 20:22:22 GMT 42.123302 -83.811058 28,650 105 418 1536
2019-11-12 20:22:15 GMT 42.127396 -83.830238 28,625 105 418 1536
2019-11-12 20:22:11 GMT 42.128750 -83.836731 28,625 105 418 1536
2019-11-12 20:22:08 GMT 42.131359 -83.848999 28,525 105 418 1472
2019-11-12 20:22:05 GMT 42.132614 -83.855003 28,400 105 417 1152
2019-11-12 20:22:02 GMT 42.136551 -83.873497 28,300 105 417 1216
2019-11-12 20:21:53 GMT 42.138527 -83.882980 28,275 105 417 1152
2019-11-12 20:21:50 GMT 42.139893 -83.889481 28,175 105 417 1152
2019-11-12 20:21:44 GMT 42.143509 -83.906395 28,075 105 416 1280
2019-11-12 20:21:41 GMT 42.145275 -83.914917 27,950 105 416 1600
2019-11-12 20:21:36 GMT 42.147720 -83.926369 27,650 105 416 1920
2019-11-12 20:21:30 GMT 42.150879 -83.941353 27,625 105 418 1920
2019-11-12 20:21:26 GMT 42.155045 -83.961143 27,275 105 420 1408
2019-11-12 20:21:22 GMT 42.155045 -83.961143 27,350 105 420 1408
2019-11-12 20:21:10 GMT 42.161758 -83.993034 27,125 105 420 1792
2019-11-12 20:21:06 GMT 42.163559 -84.001587 26,950 105 421 1856
2019-11-12 20:20:59 GMT 42.167484 -84.020309 26,750 105 421 1536
2019-11-12 20:20:55 GMT 42.168785 -84.026375 26,675 105 422 1344
2019-11-12 20:20:48 GMT 42.173443 -84.048607 26,500 105 421 1280
2019-11-12 20:20:40 GMT 42.179169 -84.075874 26,225 105 421 1664
2019-11-12 20:20:37 GMT 42.179169 -84.075874 26,225 105 421 1728
2019-11-12 20:20:34 GMT 42.180843 -84.083923 26,150 105 421 1536
2019-11-12 20:20:29 GMT 42.183060 -84.094536 25,950 105 421 1536
2019-11-12 20:20:26 GMT 42.184753 -84.102654 25,950 105 421 1536
2019-11-12 20:20:23 GMT 42.186337 -84.110245 25,875 105 421 1600
2019-11-12 20:20:17 GMT 42.189503 -84.125381 25,700 105 421 1792
2019-11-12 20:20:12 GMT 42.192295 -84.138535 25,550 105 422 1728
2019-11-12 20:20:07 GMT 42.194733 -84.150154 25,425 105 422 1536
2019-11-12 20:20:04 GMT 42.196297 -84.157768 25,325 105 422 1344
2019-11-12 20:20:01 GMT 42.197662 -84.164322 25,300 105 422 1408
2019-11-12 20:19:57 GMT 42.200535 -84.178017 25,175 105 421 1472
2019-11-12 20:19:54 GMT 42.202103 -84.185547 25,100 105 421 1472
2019-11-12 20:19:51 GMT 42.203236 -84.191109 25,050 105 420 1664
2019-11-12 20:19:46 GMT 42.205795 -84.203239 24,975 105 420 1664
2019-11-12 20:19:41 GMT 42.208729 -84.217361 24,775 105 421 1920
2019-11-12 20:19:36 GMT 42.211761 -84.231987 24,550 105 422 1984
2019-11-12 20:19:32 GMT 42.213570 -84.240608 23,700 105 425 2112
2019-11-12 20:19:24 GMT 42.217026 -84.257393 24,100 105 424 2240
2019-11-12 20:19:21 GMT 42.219360 -84.268570 24,100 105 424 2240
2019-11-12 20:19:14 GMT 42.222881 -84.285446 23,775 105 425 1344
2019-11-12 20:19:10 GMT 42.228058 -84.310455 23,675 105 424 1216
2019-11-12 20:19:05 GMT 42.229111 -84.315514 23,600 105 423 1216
2019-11-12 20:18:58 GMT 42.233826 -84.337860 23,375 105 424 2304
2019-11-12 20:18:53 GMT 42.237946 -84.357086 23,225 105 423 2240
2019-11-12 20:18:46 GMT 42.237946 -84.357086 23,125 105 423 2112
2019-11-12 20:18:43 GMT 42.239731 -84.365738 23,000 105 424 2240
2019-11-12 20:18:38 GMT 42.242294 -84.378494 22,825 104 425 2176
2019-11-12 20:18:33 GMT 42.243896 -84.386673 21,725 114 432 1728
2019-11-12 20:18:26 GMT 42.248253 -84.407700 22,375 107 430 1472
2019-11-12 20:18:19 GMT 42.252274 -84.424561 22,300 108 430 1344
2019-11-12 20:18:16 GMT 42.254768 -84.434212 22,200 109 431 1408
2019-11-12 20:18:07 GMT 42.259827 -84.452782 22,025 110 431 1408
2019-11-12 20:18:04 GMT 42.268158 -84.479622 21,725 118 435 2240
2019-11-12 20:17:58 GMT 42.268158 -84.479622 21,725 114 432 1728
2019-11-12 20:17:53 GMT 42.271637 -84.489357 21,625 116 433 1792
2019-11-12 20:17:43 GMT 42.281628 -84.514694 21,250 118 435 2176
2019-11-12 20:17:32 GMT 42.292149 -84.540497 20,900 118 437 1472
2019-11-12 20:17:21 GMT 42.303463 -84.568153 20,675 118 435 1152
2019-11-12 20:17:15 GMT 42.308071 -84.579590 20,575 118 434 1408
2019-11-12 20:17:10 GMT 42.313705 -84.593292 20,425 118 433 1536
2019-11-12 20:17:06 GMT 42.317963 -84.603714 20,300 118 432 1536
2019-11-12 20:17:02 GMT 42.321808 -84.613205 20,200 118 432 1600
2019-11-12 20:16:58 GMT 42.324738 -84.620277 20,125 118 432 1600
2019-11-12 20:16:50 GMT 42.331833 -84.637733 19,875 118 435 1408
2019-11-12 20:16:47 GMT 42.334743 -84.644867 19,775 118 434 2048
2019-11-12 20:16:38 GMT 42.344971 -84.670006 19,425 118 434 1920
2019-11-12 20:16:30 GMT 42.351734 -84.686707 19,100 118 435 1856
2019-11-12 20:16:27 GMT 42.361633 -84.711021 18,850 118 435 1472
2019-11-12 20:16:20 GMT 42.361633 -84.711021 18,900 118 435 1536
2019-11-12 20:16:16 GMT 42.365891 -84.721504 18,775 118 435 1344
2019-11-12 20:16:10 GMT 42.371475 -84.735313 18,675 118 434 1472
2019-11-12 20:16:05 GMT 42.376503 -84.747704 18,550 118 434 1408
2019-11-12 20:15:58 GMT 42.382648 -84.762909 18,400 118 431 1344
2019-11-12 20:15:54 GMT 42.387039 -84.773819 18,300 118 431 1472
2019-11-12 20:15:44 GMT 42.395462 -84.794601 17,825 118 430 1344
2019-11-12 20:15:41 GMT 42.398529 -84.802155 18,000 118 430 1344
2019-11-12 20:15:38 GMT 42.402740 -84.812515 17,825 118 429 1152
2019-11-12 20:15:34 GMT 42.405807 -84.820068 17,850 119 428 960
2019-11-12 20:15:26 GMT 42.414070 -84.840134 17,700 119 426 1088
2019-11-12 20:15:18 GMT 42.421703 -84.858719 17,475 118 424 1472
2019-11-12 20:15:10 GMT 42.428734 -84.876472 17,350 117 423 1664
2019-11-12 20:15:06 GMT 42.431854 -84.884369 17,250 117 422 1664
2019-11-12 20:14:59 GMT 42.439270 -84.902969 17,050 118 422 1472
2019-11-12 20:14:55 GMT 42.441879 -84.909462 16,925 119 419 1408
2019-11-12 20:14:49 GMT 42.448334 -84.925125 16,825 119 420 1280
2019-11-12 20:14:46 GMT 42.450989 -84.931557 16,700 119 419 1408
2019-11-12 20:14:43 GMT 42.452911 -84.936111 16,700 119 419 1408
2019-11-12 20:14:38 GMT 42.458908 -84.950783 16,575 118 418 1664
2019-11-12 20:14:35 GMT 42.462204 -84.959084 16,475 118 417 1600
2019-11-12 20:14:27 GMT 42.469116 -84.976562 16,250 118 416 1600
2019-11-12 20:14:24 GMT 42.470901 -84.981186 16,250 118 416 1600
2019-11-12 20:14:14 GMT 42.480423 -85.005028 15,950 119 414 1216
2019-11-12 20:14:03 GMT 42.499821 -85.052635 15,650 119 414 1216
2019-11-12 20:13:53 GMT 42.499821 -85.052635 15,525 118 410 1216
2019-11-12 20:13:43 GMT 42.508163 -85.073883 15,125 117 361 0
2019-11-12 20:13:31 GMT 42.519196 -85.101784 14,925 118 406 1536
2019-11-12 20:13:23 GMT 42.527004 -85.120918 14,600 119 405 1536
2019-11-12 20:13:10 GMT 42.537899 -85.147491 14,400 118 403 1792
2019-11-12 20:13:02 GMT 42.545425 -85.166580 14,125 117 402 1664
2019-11-12 20:12:49 GMT 42.556427 -85.194504 13,850 118 399 1344
2019-11-12 20:12:39 GMT 42.566162 -85.218391 13,650 119 392 832
2019-11-12 20:12:28 GMT 42.574677 -85.239342 13,400 118 384 832
2019-11-12 20:12:19 GMT 42.589806 -85.278053 12,425 118 375 1280
2019-11-12 20:12:10 GMT 42.589806 -85.278053 13,175 118 374 1280
2019-11-12 20:11:58 GMT 42.600220 -85.303780 12,875 119 368 1472
2019-11-12 20:11:54 GMT 42.603882 -85.312645 12,750 118 366 1472
2019-11-12 20:11:47 GMT 42.608688 -85.324692 12,625 118 362 1344
2019-11-12 20:11:43 GMT 42.611847 -85.332680 12,525 117 360 1472
2019-11-12 20:11:40 GMT 42.614475 -85.339500 12,425 117 358 1408
2019-11-12 20:11:36 GMT 42.617706 -85.347855 12,350 117 356 1344
2019-11-12 20:11:32 GMT 42.619858 -85.353348 12,000 118 347 1536
2019-11-12 20:11:29 GMT 42.622925 -85.361214 12,200 118 352 1344
2019-11-12 20:11:25 GMT 42.625717 -85.368141 12,100 118 349 1472
2019-11-12 20:11:22 GMT 42.627747 -85.373161 12,050 118 347 1536
2019-11-12 20:11:18 GMT 42.631142 -85.381531 11,950 118 345 1408
2019-11-12 20:11:12 GMT 42.639336 -85.401840 11,725 118 338 1408
2019-11-12 20:11:07 GMT 42.639336 -85.401840 11,700 118 338 1408
2019-11-12 20:11:01 GMT 42.644318 -85.414482 11,500 117 333 1664
2019-11-12 20:10:58 GMT 42.646320 -85.419662 11,425 117 332 1856
2019-11-12 20:10:50 GMT 42.651627 -85.433182 11,200 117 328 1664
2019-11-12 20:10:47 GMT 42.653767 -85.438629 11,125 118 325 1664
2019-11-12 20:10:41 GMT 42.658722 -85.451164 10,925 118 321 1792
2019-11-12 20:10:37 GMT 42.661240 -85.457527 10,825 118 318 1536
2019-11-12 20:10:34 GMT 42.663357 -85.462776 10,750 118 316 1280
2019-11-12 20:10:29 GMT 42.666149 -85.469734 10,675 118 311 1024
2019-11-12 20:10:25 GMT 42.668747 -85.476257 10,600 118 310 1152
2019-11-12 20:10:20 GMT 42.673050 -85.487114 10,350 118 304 2176
2019-11-12 20:10:16 GMT 42.675320 -85.492798 10,300 118 302 2240
2019-11-12 20:10:13 GMT 42.679790 -85.504166 10,025 118 298 1920
2019-11-12 20:10:06 GMT 42.682163 -85.510101 9,925 118 298 1856
2019-11-12 20:10:03 GMT 42.684258 -85.515343 9,800 118 295 1472
2019-11-12 20:09:59 GMT 42.686737 -85.521507 9,750 118 294 1728
2019-11-12 20:09:55 GMT 42.689072 -85.527313 9,625 118 292 2176
2019-11-12 20:09:51 GMT 42.691288 -85.532784 9,500 119 291 2240
2019-11-12 20:09:47 GMT 42.694454 -85.540443 9,375 119 291 2240
2019-11-12 20:09:42 GMT 42.698318 -85.549660 9,100 119 291 2368
2019-11-12 20:09:38 GMT 42.700745 -85.555344 8,950 120 291 2176
2019-11-12 20:09:35 GMT 42.702667 -85.559776 8,850 119 290 2048
2019-11-12 20:09:30 GMT 42.705597 -85.566765 8,650 119 288 2112
2019-11-12 20:09:26 GMT 42.708252 -85.573074 8,575 119 288 2176
2019-11-12 20:09:21 GMT 42.712051 -85.582153 8,350 120 286 1920
2019-11-12 20:09:17 GMT 42.714844 -85.588737 8,200 121 286 1728
2019-11-12 20:09:13 GMT 42.716537 -85.592422 8,125 121 285 1600
2019-11-12 20:09:09 GMT 42.719498 -85.598701 8,025 123 283 1536
2019-11-12 20:09:03 GMT 42.724247 -85.608025 7,875 126 279 1472
2019-11-12 20:09:00 GMT 42.727322 -85.613647 7,750 126 277 1984
2019-11-12 20:08:57 GMT 42.729462 -85.617538 7,600 125 276 2176
2019-11-12 20:08:53 GMT 42.731964 -85.622383 7,525 123 275 2112
2019-11-12 20:08:48 GMT 42.734768 -85.628525 7,400 120 273 2048
2019-11-12 20:08:43 GMT 42.738445 -85.637535 7,175 119 272 2240
2019-11-12 20:08:39 GMT 42.741238 -85.644051 7,000 123 270 2112
2019-11-12 20:08:36 GMT 42.743408 -85.648163 6,775 131 269 2112
2019-11-12 20:08:32 GMT 42.745850 -85.652031 6,800 135 268 2368
2019-11-12 20:08:25 GMT 42.752609 -85.659401 6,425 150 266 2624
2019-11-12 20:08:21 GMT 42.756500 -85.662209 6,350 156 265 2496
2019-11-12 20:08:15 GMT 42.768723 -85.666458 5,975 176 261 2944
2019-11-12 20:08:12 GMT 42.768723 -85.666458 5,900 176 261 2944
2019-11-12 20:08:05 GMT 42.777596 -85.665764 5,525 193 259 2816
2019-11-12 20:08:01 GMT 42.780853 -85.664680 5,375 198 257 2688
2019-11-12 20:07:57 GMT 42.786346 -85.661583 5,175 208 254 2240
2019-11-12 20:07:54 GMT 42.788773 -85.659653 5,075 217 250 2496
2019-11-12 20:07:50 GMT 42.791794 -85.656776 4,950 218 250 2496
2019-11-12 20:07:44 GMT 42.798889 -85.648788 4,625 221 247 2560
2019-11-12 20:07:40 GMT 42.800995 -85.646355 4,525 221 247 2624
2019-11-12 20:07:35 GMT 42.804970 -85.641685 4,300 222 246 2688
2019-11-12 20:07:29 GMT 42.809921 -85.635742 4,050 222 245 2624
2019-11-12 20:07:25 GMT 42.813862 -85.631104 3,850 222 245 2368
2019-11-12 20:07:20 GMT 42.818436 -85.625526 3,650 222 242 2176
2019-11-12 20:07:15 GMT 42.827221 -85.614754 3,225 223 237 1856
2019-11-12 20:07:09 GMT 42.827221 -85.614754 3,275 223 238 2176
2019-11-12 20:07:05 GMT 42.831085 -85.609978 3,125 223 234 1408
2019-11-12 20:06:58 GMT 42.835835 -85.603966 3,000 224 229 896
2019-11-12 20:06:52 GMT 42.841461 -85.596848 2,825 224 220 1920
2019-11-12 20:06:49 GMT 42.843372 -85.594353 2,750 224 217 1472
2019-11-12 20:06:44 GMT 42.847321 -85.589439 2,650 222 209 640
2019-11-12 20:06:36 GMT 42.852779 -85.582840 2,525 222 194 1664
2019-11-12 20:06:31 GMT 42.855881 -85.579086 2,400 222 189 1600
2019-11-12 20:06:27 GMT 42.862087 -85.571922 2,225 221 185 1728
2019-11-12 20:06:22 GMT 42.862087 -85.571922 2,100 220 184 1728
2019-11-12 20:06:18 GMT 42.864414 -85.569237 2,025 223 179 1664
2019-11-12 20:06:10 GMT 42.868744 -85.563225 1,825 230 170 1664
2019-11-12 20:06:05 GMT 42.870888 -85.559624 1,700 235 164 2304
2019-11-12 20:06:01 GMT 42.872841 -85.555443 1,500 242 162 2368
2019-11-12 20:05:56 GMT 42.874649 -85.550537 1,300 249 159 2112
2019-11-12 20:05:45 GMT 42.876568 -85.540855 925 259 153 1920
2019-11-12 20:05:35 GMT 42.877869 -85.531113 625 262 146 1728
2019-11-12 20:05:09 GMT 42.880096 -85.511543 0 267 86
2019-11-12 20:05:05 GMT 42.880325 -85.509438 0 267 68
2019-11-12 20:04:55 GMT 42.880672 -85.506447 0 267 21
2019-11-12 20:04:38 GMT 42.880722 -85.505692 0 227 6
2019-11-12 20:04:33 GMT 42.880806 -85.505539 0 185 7
2019-11-12 20:04:18 GMT 42.881374 -85.505676 0 174 8
2019-11-12 20:04:04 GMT 42.881607 -85.505745 0 177 0
2019-11-12 20:04:00 GMT 42.881618 -85.505745 0 177 0
2019-11-12 20:03:44 GMT 42.881618 -85.505745 0 177 0
2019-11-12 20:03:39 GMT 42.881607 -85.505745 0 177 0
2019-11-12 20:02:13 GMT 42.881618 -85.505745 0 177 0
2019-11-12 20:02:08 GMT 42.881607 -85.505745 0 177 0
2019-11-12 20:01:55 GMT 42.881618 -85.505745 0 177 0
2019-11-12 20:01:45 GMT 42.881607 -85.505745 0 177 0
2019-11-12 20:01:33 GMT 42.881641 -85.505760 0 177 4
2019-11-12 20:01:27 GMT 42.881790 -85.505775 0 177 8
2019-11-12 20:01:15 GMT 42.882259 -85.505905 0 140 9
2019-11-12 20:01:05 GMT 42.882465 -85.506256 0 120 6
We lost coverage of the aircraft here for a total of 8 minutes
2019-11-12 19:53:02 GMT 42.882748 -85.506691 0 157 0
We lost coverage of the aircraft here for a total of 7 minutes
2019-11-12 19:46:09 GMT 42.882751 -85.506691 0 157 0
2019-11-12 19:45:20 GMT 42.882748 -85.506691 0 157 0
2019-11-12 19:45:08 GMT 42.882740 -85.506691 0 157 0
2019-11-12 19:44:55 GMT 42.882748 -85.506691 0 157 0
2019-11-12 19:44:29 GMT 42.882664 -85.507248 0 36 11
2019-11-12 19:44:20 GMT 42.882328 -85.507805 0 84 14
2019-11-12 19:44:10 GMT 42.882221 -85.508736 0 87 15
2019-11-12 19:43:59 GMT 42.882111 -85.509720 0 109 13
2019-11-12 19:43:49 GMT 42.882420 -85.510239 0 177 14
2019-11-12 19:43:37 GMT 42.883301 -85.510422 0 174 17
2019-11-12 19:43:29 GMT 42.883991 -85.510567 0 177 16
2019-11-12 19:43:17 GMT 42.884712 -85.510712 0 174 15
2019-11-12 19:43:07 GMT 42.885353 -85.510857 0 157 13
2019-11-12 19:42:54 GMT 42.885517 -85.512756 0 84 21
2019-11-12 19:42:46 GMT 42.885517 -85.512756 0 87 21
2019-11-12 19:42:35 GMT 42.885353 -85.514229 0 87 24
2019-11-12 19:42:26 GMT 42.885201 -85.515518 0 84 23
2019-11-12 19:42:11 GMT 42.884968 -85.517578 0 87 21
2019-11-12 19:42:06 GMT 42.884888 -85.518333 0 87 20

Making use of Plane Finder data

You are free to use the raw flight data, aircraft information and images provided in this report for your own purposes provided the data is correctly attributed to Plane Finder. We ask that you please credit Plane Finder and link to planefinder.net in close proximity to the content.

Optionally one of the following logos (no smaller then 150x24px) can be used and must link to planefinder.net

Embedding the Plane Finder map

You are welcome to embed the Plane Finder playback map on your website to offer visitors a more interactive experience. We suggest using the following HTML code:

<iframe src="//planefinder.net/data/report/UA4972-N14204-7700-squawk-2019-11-12/map" width="800" height="600" seamless="seamless"></iframe>

Where our data comes from

Plane Finder has a global network of data feeds and antenna radars that receive data broadcast directly from aircraft. The primary technologies used are ADS-B and MLAT. We also show feeds from the FAA and a FLARM glider feed.

Click here to find out more about the Plane Finder network.

How we collect our data